QTR774 OTHH-GMMN
Flight info
| Callsign | QTR774 |
|---|---|
| Flight time | N/A |
| Altitude | 29000 |
| Route | DCT DATRI L564 MIGMA/N0494F280 M550 MEVDO Y511 ITRUX/N0499F340 Y511 PMA Z712 WEJ L677 PASAM/N0492F360 L677 CVO L617 NABSI M872 METRU DCT ARLOS/N0478F380 DCT EMLAR DCT DEXOL DCT OMENI UL874 DIMAO UZ888 ORSUP UA411 FES UR975 SADIC SADIC3A |
| Aircraft | A333/H-SDE3GHIJ2J3J5M1RVWXYZ/LB2D1 |
Departure
| Time | N/A |
|---|---|
| Airport | Hamad International Airport (OTHH) |
Arrival
| Time | 2026-04-28 20:56 |
|---|---|
| Airport | Mohammed V International Airport (GMMN) |
| Time | Latitude | Longitude | Altitude | Speed | Heading |
|---|---|---|---|---|---|
| 2026-04-28 10:17 | 24.33438 | 51.47987 | 21750 ft | 348 kts | 192° |
| 2026-04-28 10:18 | 24.31030 | 51.47421 | 22034 ft | 350 kts | 192° |
| 2026-04-28 10:18 | 24.28641 | 51.46859 | 22310 ft | 352 kts | 192° |
| 2026-04-28 10:18 | 24.26244 | 51.46296 | 22579 ft | 354 kts | 192° |
| 2026-04-28 10:18 | 24.23858 | 51.45735 | 22842 ft | 356 kts | 192° |
| 2026-04-28 10:19 | 24.21389 | 51.45225 | 23088 ft | 357 kts | 184° |
| 2026-04-28 10:19 | 24.18886 | 51.45205 | 23308 ft | 360 kts | 180° |
| 2026-04-28 10:19 | 24.16407 | 51.45214 | 23590 ft | 361 kts | 180° |
| 2026-04-28 10:19 | 24.13870 | 51.45223 | 23848 ft | 363 kts | 180° |
| 2026-04-28 10:20 | 24.11344 | 51.45232 | 24084 ft | 365 kts | 180° |
| 2026-04-28 10:20 | 24.08776 | 51.45240 | 24340 ft | 367 kts | 180° |
| 2026-04-28 10:20 | 24.06211 | 51.45249 | 24588 ft | 368 kts | 180° |
| 2026-04-28 10:20 | 24.03666 | 51.45258 | 24827 ft | 370 kts | 180° |
| 2026-04-28 10:21 | 24.01071 | 51.45266 | 25070 ft | 372 kts | 180° |
| 2026-04-28 10:21 | 23.98456 | 51.45275 | 25311 ft | 374 kts | 180° |
| 2026-04-28 10:21 | 23.95854 | 51.45284 | 25547 ft | 376 kts | 180° |
| 2026-04-28 10:21 | 23.93229 | 51.45293 | 25781 ft | 378 kts | 180° |
| 2026-04-28 10:22 | 23.90573 | 51.45301 | 26015 ft | 379 kts | 180° |
| 2026-04-28 10:22 | 23.87951 | 51.45311 | 26241 ft | 381 kts | 180° |
| 2026-04-28 10:22 | 23.85259 | 51.45319 | 26470 ft | 383 kts | 180° |
| 2026-04-28 10:22 | 23.82592 | 51.45329 | 26693 ft | 385 kts | 180° |
| 2026-04-28 10:23 | 23.79901 | 51.45337 | 26915 ft | 386 kts | 180° |
| 2026-04-28 10:23 | 23.77224 | 51.45347 | 27132 ft | 388 kts | 180° |
| 2026-04-28 10:23 | 23.74496 | 51.45356 | 27350 ft | 390 kts | 180° |
| 2026-04-28 10:23 | 23.71785 | 51.45364 | 27565 ft | 392 kts | 180° |
| 2026-04-28 10:24 | 23.69058 | 51.45374 | 27778 ft | 393 kts | 180° |
| 2026-04-28 10:24 | 23.66312 | 51.45383 | 27990 ft | 395 kts | 180° |
| 2026-04-28 10:24 | 23.63537 | 51.45392 | 28202 ft | 397 kts | 180° |
| 2026-04-28 10:24 | 23.60774 | 51.45401 | 28410 ft | 399 kts | 180° |
| 2026-04-28 10:25 | 23.57996 | 51.45410 | 28617 ft | 400 kts | 180° |
| 2026-04-28 10:25 | 23.55181 | 51.45420 | 28824 ft | 402 kts | 180° |
| 2026-04-28 10:25 | 23.52391 | 51.45430 | 29004 ft | 402 kts | 180° |
| 2026-04-28 10:25 | 23.49561 | 51.45439 | 28981 ft | 404 kts | 180° |
| 2026-04-28 10:26 | 23.43957 | 51.45505 | 29021 ft | 403 kts | 179° |
| 2026-04-28 10:26 | 23.38332 | 51.45593 | 29010 ft | 403 kts | 179° |
| 2026-04-28 10:27 | 23.32696 | 51.45680 | 28988 ft | 404 kts | 179° |
| 2026-04-28 10:27 | 23.27083 | 51.45767 | 29001 ft | 404 kts | 179° |
| 2026-04-28 10:28 | 23.21452 | 51.45852 | 29012 ft | 403 kts | 179° |
| 2026-04-28 10:29 | 23.12992 | 51.45968 | 29010 ft | 403 kts | 179° |
| 2026-04-28 10:29 | 23.07382 | 51.46045 | 28992 ft | 404 kts | 179° |
| 2026-04-28 10:30 | 23.01758 | 51.46122 | 29006 ft | 404 kts | 179° |
| 2026-04-28 10:30 | 22.96124 | 51.46199 | 29002 ft | 403 kts | 179° |
| 2026-04-28 10:31 | 22.90486 | 51.46215 | 28986 ft | 404 kts | 187° |
| 2026-04-28 10:31 | 22.87786 | 51.45437 | 29011 ft | 402 kts | 206° |
| 2026-04-28 10:31 | 22.85472 | 51.43763 | 29051 ft | 404 kts | 224° |
| 2026-04-28 10:31 | 22.83752 | 51.41357 | 29009 ft | 406 kts | 243° |
| 2026-04-28 10:32 | 22.82847 | 51.38510 | 29041 ft | 404 kts | 260° |
| 2026-04-28 10:32 | 22.81844 | 51.32492 | 28973 ft | 405 kts | 259° |
| 2026-04-28 10:33 | 22.80792 | 51.26525 | 28993 ft | 404 kts | 259° |
| 2026-04-28 10:33 | 22.79739 | 51.20594 | 29017 ft | 403 kts | 259° |
| 2026-04-28 10:34 | 22.78675 | 51.14627 | 29002 ft | 403 kts | 259° |
| 2026-04-28 10:34 | 22.77607 | 51.08651 | 28990 ft | 404 kts | 259° |
| 2026-04-28 10:35 | 22.76542 | 51.02707 | 29010 ft | 404 kts | 259° |
| 2026-04-28 10:35 | 22.75469 | 50.96740 | 29001 ft | 403 kts | 259° |
| 2026-04-28 10:36 | 22.74396 | 50.90783 | 28993 ft | 404 kts | 259° |
| 2026-04-28 10:36 | 22.73322 | 50.84829 | 29012 ft | 403 kts | 259° |
| 2026-04-28 10:37 | 22.72246 | 50.78885 | 28996 ft | 404 kts | 259° |
| 2026-04-28 10:37 | 22.71165 | 50.72922 | 28997 ft | 404 kts | 259° |
| 2026-04-28 10:38 | 22.70085 | 50.66976 | 29010 ft | 403 kts | 259° |
| 2026-04-28 10:38 | 22.69002 | 50.61029 | 28993 ft | 404 kts | 259° |
| 2026-04-28 10:39 | 22.67916 | 50.55076 | 29006 ft | 404 kts | 259° |
| 2026-04-28 10:39 | 22.66824 | 50.49107 | 29000 ft | 403 kts | 259° |
| 2026-04-28 10:40 | 22.65736 | 50.43169 | 28995 ft | 404 kts | 259° |
| 2026-04-28 10:40 | 22.64643 | 50.37220 | 29011 ft | 403 kts | 259° |
| 2026-04-28 10:41 | 22.63549 | 50.31280 | 28993 ft | 404 kts | 258° |
| 2026-04-28 10:41 | 22.62450 | 50.25324 | 29005 ft | 404 kts | 258° |
| 2026-04-28 10:42 | 22.61351 | 50.19379 | 29001 ft | 403 kts | 258° |
| 2026-04-28 10:42 | 22.60252 | 50.13444 | 28995 ft | 404 kts | 258° |
| 2026-04-28 10:43 | 22.59152 | 50.07519 | 29012 ft | 403 kts | 258° |
| 2026-04-28 10:43 | 22.58040 | 50.01546 | 28993 ft | 404 kts | 258° |
| 2026-04-28 10:44 | 22.56937 | 49.95631 | 29002 ft | 404 kts | 258° |
| 2026-04-28 10:44 | 22.55822 | 49.89665 | 29003 ft | 403 kts | 258° |
| 2026-04-28 10:45 | 22.54711 | 49.83728 | 28994 ft | 404 kts | 258° |
| 2026-04-28 10:45 | 22.53627 | 49.77814 | 29005 ft | 403 kts | 263° |
| 2026-04-28 10:45 | 22.53669 | 49.74799 | 29004 ft | 403 kts | 277° |
| 2026-04-28 10:46 | 22.53985 | 49.71754 | 29037 ft | 404 kts | 276° |
| 2026-04-28 10:46 | 22.54562 | 49.65735 | 29015 ft | 403 kts | 276° |
| 2026-04-28 10:47 | 22.55135 | 49.59721 | 28987 ft | 404 kts | 276° |
| 2026-04-28 10:47 | 22.55708 | 49.53674 | 28994 ft | 404 kts | 276° |
| 2026-04-28 10:48 | 22.56276 | 49.47657 | 29014 ft | 403 kts | 276° |
| 2026-04-28 10:48 | 22.56842 | 49.41629 | 28996 ft | 403 kts | 276° |
| 2026-04-28 10:49 | 22.57405 | 49.35614 | 28995 ft | 404 kts | 276° |
| 2026-04-28 10:49 | 22.57968 | 49.29577 | 29012 ft | 403 kts | 275° |
| 2026-04-28 10:50 | 22.58528 | 49.23550 | 28993 ft | 404 kts | 275° |
| 2026-04-28 10:50 | 22.59084 | 49.17531 | 29001 ft | 404 kts | 275° |
| 2026-04-28 10:51 | 22.59643 | 49.11463 | 29007 ft | 403 kts | 275° |
| 2026-04-28 10:51 | 22.60195 | 49.05445 | 28992 ft | 404 kts | 275° |
| 2026-04-28 10:52 | 22.60744 | 48.99430 | 29009 ft | 404 kts | 275° |
| 2026-04-28 10:52 | 22.61295 | 48.93378 | 28998 ft | 403 kts | 275° |
| 2026-04-28 10:53 | 22.61840 | 48.87355 | 28996 ft | 404 kts | 275° |
| 2026-04-28 10:53 | 22.62385 | 48.81311 | 29010 ft | 403 kts | 275° |
| 2026-04-28 10:54 | 22.62927 | 48.75281 | 28993 ft | 404 kts | 275° |
| 2026-04-28 10:54 | 22.63465 | 48.69265 | 29005 ft | 404 kts | 275° |
| 2026-04-28 10:55 | 22.64003 | 48.63225 | 29000 ft | 403 kts | 275° |
| 2026-04-28 10:55 | 22.64537 | 48.57194 | 28995 ft | 404 kts | 275° |
| 2026-04-28 10:56 | 22.65073 | 48.51126 | 29010 ft | 403 kts | 275° |
| 2026-04-28 10:56 | 22.65602 | 48.45113 | 28995 ft | 404 kts | 275° |
| 2026-04-28 10:57 | 22.66131 | 48.39061 | 29002 ft | 404 kts | 275° |
| 2026-04-28 10:57 | 22.66658 | 48.33016 | 29005 ft | 403 kts | 275° |
| 2026-04-28 10:58 | 22.67180 | 48.27001 | 28999 ft | 404 kts | 275° |
| 2026-04-28 10:58 | 22.67701 | 48.20964 | 28999 ft | 404 kts | 275° |
| 2026-04-28 10:59 | 22.68222 | 48.14908 | 29000 ft | 404 kts | 275° |
| 2026-04-28 10:59 | 22.68737 | 48.08889 | 29001 ft | 404 kts | 275° |
| 2026-04-28 11:00 | 22.69252 | 48.02845 | 29001 ft | 404 kts | 275° |
| 2026-04-28 11:00 | 22.69762 | 47.96802 | 29001 ft | 404 kts | 275° |
| 2026-04-28 11:01 | 22.70270 | 47.90753 | 29000 ft | 404 kts | 275° |
| 2026-04-28 11:01 | 22.70772 | 47.84744 | 29000 ft | 404 kts | 275° |
| 2026-04-28 11:02 | 22.71275 | 47.78703 | 29000 ft | 404 kts | 275° |
| 2026-04-28 11:02 | 22.71775 | 47.72660 | 29000 ft | 404 kts | 275° |
| 2026-04-28 11:03 | 22.72273 | 47.66622 | 29000 ft | 404 kts | 275° |
| 2026-04-28 11:03 | 22.72771 | 47.60550 | 29000 ft | 404 kts | 275° |
| 2026-04-28 11:04 | 22.73263 | 47.54528 | 29000 ft | 404 kts | 275° |
| 2026-04-28 11:04 | 22.73754 | 47.48487 | 29000 ft | 404 kts | 275° |
| 2026-04-28 11:05 | 22.74246 | 47.42411 | 29000 ft | 404 kts | 275° |
| 2026-04-28 11:05 | 22.74730 | 47.36402 | 29000 ft | 404 kts | 275° |
| 2026-04-28 11:06 | 22.75214 | 47.30353 | 29000 ft | 404 kts | 275° |
| 2026-04-28 11:06 | 22.75698 | 47.24296 | 29000 ft | 404 kts | 275° |
| 2026-04-28 11:07 | 22.76176 | 47.18270 | 29000 ft | 404 kts | 275° |
| 2026-04-28 11:07 | 22.76660 | 47.12196 | 29000 ft | 404 kts | 275° |
| 2026-04-28 11:08 | 22.77139 | 47.06168 | 29000 ft | 404 kts | 275° |
| 2026-04-28 11:08 | 22.77618 | 47.00100 | 29000 ft | 404 kts | 275° |
| 2026-04-28 11:09 | 22.78092 | 46.94072 | 29000 ft | 404 kts | 275° |
| 2026-04-28 11:09 | 22.78564 | 46.88045 | 29000 ft | 404 kts | 275° |
| 2026-04-28 11:10 | 22.79036 | 46.81979 | 29000 ft | 404 kts | 275° |
| 2026-04-28 11:10 | 22.79505 | 46.75938 | 29000 ft | 404 kts | 275° |
| 2026-04-28 11:11 | 22.79970 | 46.69902 | 29000 ft | 404 kts | 275° |
| 2026-04-28 11:11 | 22.80436 | 46.63824 | 29000 ft | 404 kts | 275° |
| 2026-04-28 11:12 | 22.80897 | 46.57786 | 29000 ft | 404 kts | 275° |
| 2026-04-28 11:12 | 22.81356 | 46.51753 | 29000 ft | 404 kts | 275° |
| 2026-04-28 11:13 | 22.81812 | 46.45712 | 29000 ft | 404 kts | 275° |
| 2026-04-28 11:13 | 22.82267 | 46.39662 | 29000 ft | 404 kts | 275° |
| 2026-04-28 11:14 | 22.82720 | 46.33578 | 29000 ft | 404 kts | 274° |
| 2026-04-28 11:14 | 22.83167 | 46.27537 | 29000 ft | 404 kts | 274° |
| 2026-04-28 11:15 | 22.83612 | 46.21493 | 29000 ft | 404 kts | 274° |
| 2026-04-28 11:15 | 22.84056 | 46.15435 | 29000 ft | 404 kts | 274° |
| 2026-04-28 11:16 | 22.84497 | 46.09381 | 29000 ft | 404 kts | 274° |
| 2026-04-28 11:16 | 22.84935 | 46.03334 | 29000 ft | 404 kts | 274° |
| 2026-04-28 11:17 | 22.85372 | 45.97280 | 29000 ft | 404 kts | 274° |
| 2026-04-28 11:17 | 22.85806 | 45.91222 | 29000 ft | 404 kts | 274° |
| 2026-04-28 11:18 | 22.86237 | 45.85181 | 29000 ft | 404 kts | 274° |
| 2026-04-28 11:18 | 22.86666 | 45.79136 | 29000 ft | 404 kts | 274° |
| 2026-04-28 11:19 | 22.87095 | 45.73056 | 29000 ft | 404 kts | 274° |
| 2026-04-28 11:19 | 22.87519 | 45.67022 | 29000 ft | 404 kts | 274° |
| 2026-04-28 11:20 | 22.87941 | 45.60976 | 29000 ft | 404 kts | 274° |
| 2026-04-28 11:20 | 22.88361 | 45.54929 | 29000 ft | 404 kts | 274° |
| 2026-04-28 11:21 | 22.88780 | 45.48849 | 29000 ft | 404 kts | 274° |
| 2026-04-28 11:21 | 22.89195 | 45.42807 | 29000 ft | 404 kts | 274° |
| 2026-04-28 11:22 | 22.89608 | 45.36760 | 29000 ft | 404 kts | 274° |
| 2026-04-28 11:22 | 22.90019 | 45.30705 | 29000 ft | 404 kts | 274° |
| 2026-04-28 11:23 | 22.90430 | 45.24622 | 29000 ft | 404 kts | 274° |
| 2026-04-28 11:23 | 22.90836 | 45.18574 | 29000 ft | 404 kts | 274° |
| 2026-04-28 11:24 | 22.91240 | 45.12525 | 29000 ft | 404 kts | 274° |
| 2026-04-28 11:24 | 22.91643 | 45.06433 | 29000 ft | 404 kts | 274° |
| 2026-04-28 11:25 | 22.92041 | 45.00394 | 29000 ft | 404 kts | 274° |
| 2026-04-28 11:25 | 22.92437 | 44.94351 | 29000 ft | 404 kts | 274° |
| 2026-04-28 11:26 | 22.92834 | 44.88262 | 29000 ft | 404 kts | 274° |
| 2026-04-28 11:26 | 22.93225 | 44.82216 | 29000 ft | 404 kts | 274° |
| 2026-04-28 11:27 | 22.93614 | 44.76168 | 29000 ft | 404 kts | 274° |
| 2026-04-28 11:27 | 22.94002 | 44.70089 | 29000 ft | 404 kts | 274° |
| 2026-04-28 11:28 | 22.95083 | 44.64186 | 29022 ft | 403 kts | 289° |
| 2026-04-28 11:28 | 22.96882 | 44.58386 | 28979 ft | 405 kts | 289° |
| 2026-04-28 11:29 | 22.98654 | 44.52647 | 28992 ft | 404 kts | 288° |
| 2026-04-28 11:29 | 23.00437 | 44.46863 | 29015 ft | 403 kts | 288° |
| 2026-04-28 11:30 | 23.02204 | 44.41125 | 28999 ft | 403 kts | 288° |
| 2026-04-28 11:30 | 23.04869 | 44.32454 | 28998 ft | 403 kts | 288° |
| 2026-04-28 11:31 | 23.06634 | 44.26699 | 28993 ft | 404 kts | 288° |
| 2026-04-28 11:31 | 23.08410 | 44.20902 | 29012 ft | 403 kts | 288° |
| 2026-04-28 11:32 | 23.10177 | 44.15125 | 28993 ft | 404 kts | 288° |
| 2026-04-28 11:32 | 23.11939 | 44.09358 | 28999 ft | 404 kts | 288° |
| 2026-04-28 11:33 | 23.13702 | 44.03579 | 29007 ft | 403 kts | 288° |
| 2026-04-28 11:33 | 23.15464 | 43.97790 | 28991 ft | 404 kts | 288° |
| 2026-04-28 11:34 | 23.17211 | 43.92047 | 29008 ft | 404 kts | 288° |
| 2026-04-28 11:34 | 23.18967 | 43.86266 | 28997 ft | 403 kts | 288° |
| 2026-04-28 11:35 | 23.20729 | 43.80452 | 28995 ft | 404 kts | 288° |
| 2026-04-28 11:35 | 23.22471 | 43.74701 | 29010 ft | 403 kts | 288° |
| 2026-04-28 11:36 | 23.24223 | 43.68904 | 28992 ft | 404 kts | 288° |
| 2026-04-28 11:36 | 23.25969 | 43.63121 | 29005 ft | 404 kts | 288° |
| 2026-04-28 11:37 | 23.27715 | 43.57331 | 28999 ft | 403 kts | 288° |
| 2026-04-28 11:37 | 23.29457 | 43.51543 | 28995 ft | 404 kts | 288° |
| 2026-04-28 11:38 | 23.31201 | 43.45742 | 29009 ft | 403 kts | 288° |
| 2026-04-28 11:38 | 23.32939 | 43.39953 | 28994 ft | 404 kts | 288° |
| 2026-04-28 11:39 | 23.34673 | 43.34165 | 29002 ft | 404 kts | 288° |
| 2026-04-28 11:39 | 23.36415 | 43.28347 | 28999 ft | 403 kts | 288° |
| 2026-04-28 11:40 | 23.38149 | 43.22541 | 28996 ft | 404 kts | 288° |
| 2026-04-28 11:40 | 23.39876 | 43.16756 | 29008 ft | 403 kts | 288° |
| 2026-04-28 11:41 | 23.41605 | 43.10945 | 28994 ft | 404 kts | 288° |
| 2026-04-28 11:41 | 23.43328 | 43.05138 | 29004 ft | 404 kts | 288° |
| 2026-04-28 11:42 | 23.45047 | 42.99337 | 29002 ft | 403 kts | 288° |
| 2026-04-28 11:42 | 23.46763 | 42.93538 | 28997 ft | 404 kts | 288° |
| 2026-04-28 11:43 | 23.48478 | 42.87732 | 28999 ft | 404 kts | 288° |
| 2026-04-28 11:43 | 23.50191 | 42.81928 | 29000 ft | 404 kts | 288° |
| 2026-04-28 11:44 | 23.51902 | 42.76117 | 29000 ft | 404 kts | 288° |
| 2026-04-28 11:44 | 23.53616 | 42.70301 | 29000 ft | 404 kts | 288° |
| 2026-04-28 11:45 | 23.55329 | 42.64485 | 29000 ft | 404 kts | 288° |
| 2026-04-28 11:45 | 23.57040 | 42.58663 | 29000 ft | 404 kts | 288° |
| 2026-04-28 11:46 | 23.58738 | 42.52878 | 29000 ft | 404 kts | 288° |
| 2026-04-28 11:46 | 23.60444 | 42.47055 | 29000 ft | 404 kts | 288° |
| 2026-04-28 11:47 | 23.62151 | 42.41221 | 29000 ft | 404 kts | 288° |
| 2026-04-28 11:47 | 23.63855 | 42.35388 | 29000 ft | 404 kts | 288° |
| 2026-04-28 11:48 | 23.65550 | 42.29578 | 29000 ft | 404 kts | 287° |
| 2026-04-28 11:48 | 23.67237 | 42.23768 | 29000 ft | 404 kts | 287° |
| 2026-04-28 11:49 | 23.68932 | 42.17921 | 29000 ft | 404 kts | 287° |
| 2026-04-28 11:49 | 23.70613 | 42.12112 | 29000 ft | 404 kts | 287° |
| 2026-04-28 11:50 | 23.72304 | 42.06261 | 29000 ft | 404 kts | 287° |
| 2026-04-28 11:50 | 23.73976 | 42.00466 | 29000 ft | 404 kts | 287° |
| 2026-04-28 11:51 | 23.75662 | 41.94630 | 29000 ft | 404 kts | 287° |
| 2026-04-28 11:51 | 23.77354 | 41.88776 | 29000 ft | 404 kts | 287° |
| 2026-04-28 11:52 | 23.79031 | 41.82961 | 29000 ft | 404 kts | 287° |
| 2026-04-28 11:52 | 23.80718 | 41.77105 | 29000 ft | 404 kts | 287° |
| 2026-04-28 11:53 | 23.82387 | 41.71294 | 29000 ft | 404 kts | 287° |
| 2026-04-28 11:53 | 23.84068 | 41.65432 | 29000 ft | 404 kts | 287° |
| 2026-04-28 11:54 | 23.85737 | 41.59603 | 29000 ft | 404 kts | 287° |
| 2026-04-28 11:54 | 23.87400 | 41.53776 | 29000 ft | 404 kts | 287° |
| 2026-04-28 11:55 | 23.89063 | 41.47922 | 29000 ft | 404 kts | 287° |
| 2026-04-28 11:55 | 23.90723 | 41.42072 | 29000 ft | 404 kts | 287° |
| 2026-04-28 11:56 | 23.92381 | 41.36219 | 29000 ft | 404 kts | 287° |
| 2026-04-28 11:56 | 23.94035 | 41.30390 | 29000 ft | 404 kts | 287° |
| 2026-04-28 11:57 | 23.95698 | 41.24519 | 29000 ft | 404 kts | 287° |
| 2026-04-28 11:57 | 23.97349 | 41.18685 | 29000 ft | 404 kts | 287° |
| 2026-04-28 11:58 | 23.99007 | 41.12814 | 29000 ft | 404 kts | 287° |
| 2026-04-28 11:58 | 24.00654 | 41.06972 | 29000 ft | 404 kts | 287° |
| 2026-04-28 11:59 | 24.02298 | 41.01133 | 29000 ft | 404 kts | 287° |
| 2026-04-28 11:59 | 24.03952 | 40.95252 | 29000 ft | 404 kts | 287° |
| 2026-04-28 12:00 | 24.05597 | 40.89389 | 29000 ft | 404 kts | 287° |
| 2026-04-28 12:00 | 24.07236 | 40.83541 | 29000 ft | 404 kts | 287° |
| 2026-04-28 12:01 | 24.08874 | 40.77687 | 29000 ft | 404 kts | 287° |
| 2026-04-28 12:01 | 24.10512 | 40.71823 | 29000 ft | 404 kts | 287° |
| 2026-04-28 12:02 | 24.12152 | 40.65942 | 29000 ft | 404 kts | 287° |
| 2026-04-28 12:02 | 24.13779 | 40.60103 | 29000 ft | 404 kts | 287° |
| 2026-04-28 12:03 | 24.15409 | 40.54237 | 29000 ft | 404 kts | 287° |
| 2026-04-28 12:03 | 24.17559 | 40.48600 | 29016 ft | 403 kts | 298° |
| 2026-04-28 12:04 | 24.20168 | 40.43171 | 28983 ft | 404 kts | 298° |
| 2026-04-28 12:04 | 24.22787 | 40.37709 | 28997 ft | 404 kts | 298° |
| 2026-04-28 12:05 | 24.25386 | 40.32284 | 29014 ft | 403 kts | 297° |
| 2026-04-28 12:05 | 24.27992 | 40.26837 | 28993 ft | 403 kts | 297° |
| 2026-04-28 12:06 | 24.30592 | 40.21395 | 28996 ft | 404 kts | 297° |
| 2026-04-28 12:06 | 24.33177 | 40.15980 | 29012 ft | 403 kts | 297° |
| 2026-04-28 12:07 | 24.35789 | 40.10501 | 28992 ft | 404 kts | 297° |
| 2026-04-28 12:07 | 24.38367 | 40.05087 | 29002 ft | 404 kts | 297° |
| 2026-04-28 12:08 | 24.40966 | 39.99625 | 29005 ft | 403 kts | 297° |
| 2026-04-28 12:08 | 24.43568 | 39.94148 | 28992 ft | 404 kts | 297° |
| 2026-04-28 12:09 | 24.46147 | 39.88714 | 29010 ft | 403 kts | 297° |
| 2026-04-28 12:09 | 24.48728 | 39.83268 | 28996 ft | 403 kts | 297° |
| 2026-04-28 12:10 | 24.51318 | 39.77799 | 28997 ft | 404 kts | 297° |
| 2026-04-28 12:10 | 24.53904 | 39.72342 | 29007 ft | 403 kts | 299° |
| 2026-04-28 12:11 | 24.55622 | 39.69889 | 28991 ft | 403 kts | 318° |
| 2026-04-28 12:11 | 24.57858 | 39.68044 | 29056 ft | 403 kts | 324° |
| 2026-04-28 12:11 | 24.62400 | 39.64436 | 28991 ft | 404 kts | 324° |
| 2026-04-28 12:12 | 24.66945 | 39.60809 | 28981 ft | 404 kts | 324° |
| 2026-04-28 12:12 | 24.71483 | 39.57184 | 29004 ft | 404 kts | 324° |
| 2026-04-28 12:13 | 24.76050 | 39.53531 | 29011 ft | 403 kts | 324° |
| 2026-04-28 12:13 | 24.80589 | 39.49898 | 28990 ft | 404 kts | 324° |
| 2026-04-28 12:14 | 24.85123 | 39.46265 | 29000 ft | 404 kts | 324° |
| 2026-04-28 12:14 | 24.89669 | 39.42619 | 29008 ft | 403 kts | 324° |
| 2026-04-28 12:15 | 24.94207 | 39.38976 | 28991 ft | 404 kts | 324° |
| 2026-04-28 12:15 | 24.98719 | 39.35351 | 29006 ft | 404 kts | 324° |
| 2026-04-28 12:16 | 25.03279 | 39.31683 | 28999 ft | 403 kts | 323° |
| 2026-04-28 12:16 | 25.07808 | 39.28038 | 28995 ft | 404 kts | 323° |
| 2026-04-28 12:17 | 25.12347 | 39.24381 | 29010 ft | 403 kts | 323° |
| 2026-04-28 12:17 | 25.16885 | 39.20721 | 28993 ft | 404 kts | 323° |
| 2026-04-28 12:18 | 25.21373 | 39.17067 | 28999 ft | 403 kts | 319° |
| 2026-04-28 12:18 | 25.23237 | 39.14714 | 28997 ft | 403 kts | 302° |
| 2026-04-28 12:18 | 25.24733 | 39.12127 | 29049 ft | 404 kts | 303° |
| 2026-04-28 12:19 | 25.27793 | 39.06910 | 29016 ft | 402 kts | 303° |
| 2026-04-28 12:19 | 25.30827 | 39.01727 | 28986 ft | 403 kts | 303° |
| 2026-04-28 12:20 | 25.33867 | 38.96526 | 28992 ft | 404 kts | 303° |
| 2026-04-28 12:20 | 25.36910 | 38.91316 | 29014 ft | 403 kts | 303° |
| 2026-04-28 12:21 | 25.39960 | 38.86088 | 28998 ft | 403 kts | 303° |
| 2026-04-28 12:21 | 25.42991 | 38.80886 | 28993 ft | 404 kts | 303° |
| 2026-04-28 12:22 | 25.46026 | 38.75671 | 29012 ft | 403 kts | 303° |
| 2026-04-28 12:22 | 25.49053 | 38.70464 | 28995 ft | 403 kts | 303° |
| 2026-04-28 12:23 | 25.52096 | 38.65225 | 28998 ft | 404 kts | 303° |
| 2026-04-28 12:23 | 25.55123 | 38.60007 | 29009 ft | 403 kts | 303° |
| 2026-04-28 12:24 | 25.58143 | 38.54795 | 28993 ft | 404 kts | 303° |
| 2026-04-28 12:24 | 25.61176 | 38.49554 | 29007 ft | 404 kts | 303° |
| 2026-04-28 12:25 | 25.64200 | 38.44324 | 28998 ft | 403 kts | 303° |
| 2026-04-28 12:25 | 25.67217 | 38.39100 | 28996 ft | 404 kts | 303° |
| 2026-04-28 12:26 | 25.70241 | 38.33857 | 29009 ft | 403 kts | 302° |
| 2026-04-28 12:26 | 25.73262 | 38.28614 | 28995 ft | 404 kts | 302° |
| 2026-04-28 12:27 | 25.76269 | 38.23390 | 29003 ft | 404 kts | 302° |
| 2026-04-28 12:27 | 25.79287 | 38.18141 | 29004 ft | 403 kts | 302° |
| 2026-04-28 12:28 | 25.82299 | 38.12894 | 28998 ft | 404 kts | 302° |
| 2026-04-28 12:28 | 25.85304 | 38.07657 | 28999 ft | 404 kts | 302° |
| 2026-04-28 12:29 | 25.89836 | 37.99743 | 29001 ft | 404 kts | 302° |
| 2026-04-28 12:30 | 25.92840 | 37.94492 | 29000 ft | 404 kts | 302° |
| 2026-04-28 12:30 | 25.95828 | 37.89262 | 29000 ft | 404 kts | 302° |
| 2026-04-28 12:31 | 25.98835 | 37.83992 | 29000 ft | 404 kts | 302° |
| 2026-04-28 12:31 | 26.00215 | 37.81280 | 28983 ft | 403 kts | 291° |
| 2026-04-28 12:31 | 26.00873 | 37.78281 | 29029 ft | 402 kts | 278° |
| 2026-04-28 12:32 | 26.01712 | 37.72093 | 28973 ft | 405 kts | 278° |
| 2026-04-28 12:32 | 26.02549 | 37.65942 | 28989 ft | 404 kts | 278° |
| 2026-04-28 12:33 | 26.03383 | 37.59786 | 29015 ft | 403 kts | 278° |
| 2026-04-28 12:33 | 26.04212 | 37.53643 | 29003 ft | 403 kts | 278° |
| 2026-04-28 12:34 | 26.05043 | 37.47467 | 28989 ft | 404 kts | 278° |
| 2026-04-28 12:34 | 26.05867 | 37.41318 | 29008 ft | 404 kts | 278° |
| 2026-04-28 12:35 | 26.06689 | 37.35160 | 29001 ft | 403 kts | 278° |
| 2026-04-28 12:35 | 26.07509 | 37.29007 | 28993 ft | 404 kts | 278° |
| 2026-04-28 12:36 | 26.08326 | 37.22849 | 29012 ft | 403 kts | 278° |
| 2026-04-28 12:36 | 26.09140 | 37.16688 | 28996 ft | 403 kts | 278° |
| 2026-04-28 12:37 | 26.09957 | 37.10496 | 28998 ft | 404 kts | 278° |
| 2026-04-28 12:37 | 26.10762 | 37.04362 | 29009 ft | 403 kts | 278° |
| 2026-04-28 12:38 | 26.11570 | 36.98193 | 28993 ft | 404 kts | 278° |
| 2026-04-28 12:38 | 26.12375 | 36.92019 | 29008 ft | 404 kts | 278° |
| 2026-04-28 12:39 | 26.13179 | 36.85837 | 28999 ft | 403 kts | 278° |
| 2026-04-28 12:39 | 26.13973 | 36.79706 | 28996 ft | 404 kts | 278° |
| 2026-04-28 12:40 | 26.14771 | 36.73529 | 29011 ft | 403 kts | 278° |
| 2026-04-28 12:40 | 26.15567 | 36.67348 | 28994 ft | 404 kts | 278° |
| 2026-04-28 12:41 | 26.16356 | 36.61189 | 29007 ft | 404 kts | 278° |
| 2026-04-28 12:41 | 26.17144 | 36.55029 | 28999 ft | 403 kts | 278° |
| 2026-04-28 12:42 | 26.18346 | 36.48948 | 28981 ft | 403 kts | 297° |
| 2026-04-28 12:42 | 26.19938 | 36.46442 | 29049 ft | 402 kts | 314° |
| 2026-04-28 12:42 | 26.21921 | 36.44220 | 29023 ft | 406 kts | 314° |
| 2026-04-28 12:43 | 26.25864 | 36.39699 | 29023 ft | 403 kts | 314° |
| 2026-04-28 12:43 | 26.29743 | 36.35231 | 28997 ft | 403 kts | 314° |
| 2026-04-28 12:44 | 26.33653 | 36.30722 | 28989 ft | 404 kts | 314° |
| 2026-04-28 12:44 | 26.37553 | 36.26219 | 29010 ft | 404 kts | 314° |
| 2026-04-28 12:45 | 26.41437 | 36.21730 | 29003 ft | 403 kts | 314° |
| 2026-04-28 12:45 | 26.45344 | 36.17210 | 28992 ft | 404 kts | 314° |
| 2026-04-28 12:46 | 26.49229 | 36.12711 | 29011 ft | 403 kts | 314° |
| 2026-04-28 12:46 | 26.53106 | 36.08216 | 28998 ft | 403 kts | 314° |
| 2026-04-28 12:47 | 26.56999 | 36.03698 | 28996 ft | 404 kts | 314° |
| 2026-04-28 12:47 | 26.60881 | 35.99188 | 29011 ft | 403 kts | 314° |
| 2026-04-28 12:48 | 26.64787 | 35.94644 | 28993 ft | 404 kts | 314° |
| 2026-04-28 12:48 | 26.68655 | 35.90141 | 29004 ft | 404 kts | 314° |
| 2026-04-28 12:49 | 26.72541 | 35.85612 | 29002 ft | 403 kts | 314° |
| 2026-04-28 12:49 | 26.76431 | 35.81073 | 28995 ft | 404 kts | 314° |
| 2026-04-28 12:50 | 26.80311 | 35.76542 | 29011 ft | 403 kts | 314° |
| 2026-04-28 12:50 | 26.84193 | 35.72005 | 28995 ft | 404 kts | 314° |
| 2026-04-28 12:51 | 26.88075 | 35.67462 | 29003 ft | 404 kts | 314° |
| 2026-04-28 12:51 | 26.91934 | 35.62942 | 29004 ft | 403 kts | 314° |
| 2026-04-28 12:52 | 26.95812 | 35.58395 | 28997 ft | 404 kts | 314° |
| 2026-04-28 12:52 | 26.99679 | 35.53854 | 29000 ft | 403 kts | 314° |
| 2026-04-28 12:53 | 27.03561 | 35.49292 | 29001 ft | 403 kts | 314° |
| 2026-04-28 12:53 | 27.07430 | 35.44741 | 29002 ft | 403 kts | 314° |
| 2026-04-28 12:54 | 27.11281 | 35.40207 | 29001 ft | 403 kts | 314° |
| 2026-04-28 12:54 | 27.15147 | 35.35648 | 29001 ft | 403 kts | 314° |
| 2026-04-28 12:55 | 27.19004 | 35.31096 | 29001 ft | 403 kts | 313° |
| 2026-04-28 12:55 | 27.22859 | 35.26542 | 29001 ft | 403 kts | 313° |
| 2026-04-28 12:56 | 27.26718 | 35.21977 | 29001 ft | 403 kts | 313° |
| 2026-04-28 12:56 | 27.30580 | 35.17405 | 29001 ft | 403 kts | 313° |
| 2026-04-28 12:57 | 27.34442 | 35.12827 | 29001 ft | 402 kts | 313° |
| 2026-04-28 12:57 | 27.38279 | 35.08275 | 29001 ft | 402 kts | 313° |
| 2026-04-28 12:58 | 27.42134 | 35.03696 | 29001 ft | 402 kts | 313° |
| 2026-04-28 12:58 | 27.45959 | 34.99147 | 29001 ft | 402 kts | 313° |
| 2026-04-28 12:59 | 27.49795 | 34.94581 | 29001 ft | 402 kts | 313° |
| 2026-04-28 12:59 | 27.53785 | 34.90165 | 29005 ft | 402 kts | 317° |
| 2026-04-28 13:00 | 27.57872 | 34.85859 | 29000 ft | 402 kts | 317° |
| 2026-04-28 13:00 | 27.61936 | 34.81568 | 29000 ft | 402 kts | 317° |
| 2026-04-28 13:01 | 27.66016 | 34.77254 | 29001 ft | 402 kts | 317° |
| 2026-04-28 13:01 | 27.70100 | 34.72930 | 29001 ft | 402 kts | 317° |
| 2026-04-28 13:02 | 27.74159 | 34.68629 | 29001 ft | 401 kts | 317° |
| 2026-04-28 13:02 | 27.78241 | 34.64299 | 29001 ft | 401 kts | 317° |
| 2026-04-28 13:03 | 27.82299 | 34.59989 | 29001 ft | 401 kts | 317° |
| 2026-04-28 13:03 | 27.86366 | 34.55665 | 29001 ft | 401 kts | 317° |
| 2026-04-28 13:04 | 27.90429 | 34.51340 | 29001 ft | 401 kts | 317° |
| 2026-04-28 13:04 | 27.94460 | 34.47045 | 29001 ft | 401 kts | 317° |
| 2026-04-28 13:05 | 27.98530 | 34.42704 | 29001 ft | 401 kts | 317° |
| 2026-04-28 13:05 | 28.02233 | 34.37991 | 29013 ft | 400 kts | 309° |
| 2026-04-28 13:06 | 28.05762 | 34.33113 | 28990 ft | 401 kts | 309° |
| 2026-04-28 13:06 | 28.09285 | 34.28237 | 29003 ft | 401 kts | 309° |
| 2026-04-28 13:07 | 28.12808 | 34.23356 | 29006 ft | 400 kts | 309° |
| 2026-04-28 13:07 | 28.16310 | 34.18499 | 28992 ft | 401 kts | 309° |
| 2026-04-28 13:08 | 28.19825 | 34.13618 | 29009 ft | 400 kts | 309° |
| 2026-04-28 13:08 | 28.23353 | 34.08714 | 28997 ft | 400 kts | 309° |
| 2026-04-28 13:09 | 28.26860 | 34.03834 | 28995 ft | 400 kts | 309° |
| 2026-04-28 13:09 | 28.30368 | 33.98945 | 29009 ft | 400 kts | 309° |
| 2026-04-28 13:10 | 28.33879 | 33.94048 | 28992 ft | 400 kts | 309° |
| 2026-04-28 13:10 | 28.37371 | 33.89170 | 29003 ft | 400 kts | 309° |
| 2026-04-28 13:11 | 28.40878 | 33.84266 | 29000 ft | 399 kts | 309° |
| 2026-04-28 13:11 | 28.44380 | 33.79364 | 28994 ft | 400 kts | 309° |
| 2026-04-28 13:12 | 28.47877 | 33.74464 | 29010 ft | 399 kts | 309° |
| 2026-04-28 13:12 | 28.51368 | 33.69565 | 28994 ft | 399 kts | 309° |
| 2026-04-28 13:13 | 28.54868 | 33.64653 | 29003 ft | 399 kts | 309° |
| 2026-04-28 13:13 | 28.58353 | 33.59767 | 29002 ft | 399 kts | 309° |
| 2026-04-28 13:14 | 28.61854 | 33.54852 | 28997 ft | 399 kts | 309° |
| 2026-04-28 13:14 | 28.65330 | 33.49958 | 29000 ft | 399 kts | 309° |
| 2026-04-28 13:15 | 28.68807 | 33.45055 | 29001 ft | 399 kts | 309° |
| 2026-04-28 13:15 | 28.72302 | 33.40119 | 29001 ft | 399 kts | 309° |
| 2026-04-28 13:16 | 28.75769 | 33.35216 | 29001 ft | 399 kts | 309° |
| 2026-04-28 13:16 | 28.79231 | 33.30316 | 29001 ft | 399 kts | 308° |
| 2026-04-28 13:17 | 28.82708 | 33.25388 | 29001 ft | 398 kts | 308° |
| 2026-04-28 13:17 | 28.86181 | 33.20461 | 29001 ft | 398 kts | 308° |
| 2026-04-28 13:18 | 28.89649 | 33.15534 | 29001 ft | 398 kts | 308° |
| 2026-04-28 13:18 | 28.93098 | 33.10629 | 29001 ft | 398 kts | 308° |
| 2026-04-28 13:19 | 28.96554 | 33.05708 | 29001 ft | 398 kts | 308° |
| 2026-04-28 13:19 | 29.00026 | 33.00758 | 29001 ft | 398 kts | 308° |
| 2026-04-28 13:20 | 29.03482 | 32.95826 | 29001 ft | 398 kts | 308° |
| 2026-04-28 13:20 | 29.06938 | 32.90887 | 29001 ft | 398 kts | 308° |
| 2026-04-28 13:21 | 29.10374 | 32.85971 | 29001 ft | 398 kts | 308° |
| 2026-04-28 13:21 | 29.13810 | 32.81049 | 29001 ft | 398 kts | 308° |
| 2026-04-28 13:22 | 29.17258 | 32.76105 | 29001 ft | 397 kts | 308° |
| 2026-04-28 13:22 | 29.20709 | 32.71149 | 29001 ft | 397 kts | 308° |
| 2026-04-28 13:23 | 29.24154 | 32.66197 | 29001 ft | 397 kts | 308° |
| 2026-04-28 13:23 | 29.27582 | 32.61263 | 29001 ft | 397 kts | 308° |
| 2026-04-28 13:24 | 29.30999 | 32.56305 | 29001 ft | 397 kts | 308° |
| 2026-04-28 13:24 | 29.34417 | 32.51329 | 29001 ft | 397 kts | 308° |
| 2026-04-28 13:25 | 29.37816 | 32.46375 | 29001 ft | 397 kts | 308° |
| 2026-04-28 13:25 | 29.41233 | 32.41387 | 29001 ft | 397 kts | 308° |
| 2026-04-28 13:26 | 29.44637 | 32.36414 | 29001 ft | 397 kts | 308° |
| 2026-04-28 13:26 | 29.48024 | 32.31459 | 29000 ft | 397 kts | 308° |
| 2026-04-28 13:27 | 29.51430 | 32.26470 | 29000 ft | 396 kts | 308° |
| 2026-04-28 13:27 | 29.54812 | 32.21509 | 29000 ft | 396 kts | 308° |
| 2026-04-28 13:28 | 29.58212 | 32.16518 | 29000 ft | 396 kts | 308° |
| 2026-04-28 13:28 | 29.61606 | 32.11528 | 29001 ft | 396 kts | 308° |
| 2026-04-28 13:29 | 29.64984 | 32.06556 | 29001 ft | 396 kts | 308° |
| 2026-04-28 13:29 | 29.68363 | 32.01576 | 29001 ft | 396 kts | 308° |
| 2026-04-28 13:30 | 29.71743 | 31.96590 | 29001 ft | 396 kts | 308° |
| 2026-04-28 13:30 | 29.75123 | 31.91596 | 29001 ft | 396 kts | 308° |
| 2026-04-28 13:31 | 29.80130 | 31.84055 | 29001 ft | 396 kts | 306° |
| 2026-04-28 13:31 | 29.83404 | 31.78956 | 29001 ft | 396 kts | 306° |
| 2026-04-28 13:32 | 29.86678 | 31.73851 | 29001 ft | 395 kts | 306° |
| 2026-04-28 13:32 | 29.89923 | 31.68785 | 29001 ft | 395 kts | 306° |
| 2026-04-28 13:33 | 29.93215 | 31.63672 | 29001 ft | 395 kts | 307° |
| 2026-04-28 13:33 | 29.96487 | 31.58614 | 29001 ft | 395 kts | 307° |
| 2026-04-28 13:34 | 29.99777 | 31.53522 | 29001 ft | 395 kts | 307° |
| 2026-04-28 13:34 | 30.03039 | 31.48468 | 29001 ft | 395 kts | 307° |
| 2026-04-28 13:35 | 30.06309 | 31.43395 | 29001 ft | 395 kts | 307° |
| 2026-04-28 13:35 | 30.09660 | 31.38390 | 28987 ft | 394 kts | 316° |
| 2026-04-28 13:36 | 30.13700 | 31.34062 | 29002 ft | 396 kts | 317° |
| 2026-04-28 13:36 | 30.17727 | 31.29741 | 29016 ft | 394 kts | 317° |
| 2026-04-28 13:37 | 30.21749 | 31.25420 | 28998 ft | 394 kts | 317° |
| 2026-04-28 13:37 | 30.25746 | 31.21120 | 28994 ft | 395 kts | 317° |
| 2026-04-28 13:38 | 30.29761 | 31.16795 | 29012 ft | 394 kts | 317° |
| 2026-04-28 13:38 | 30.33780 | 31.12462 | 28997 ft | 394 kts | 317° |
| 2026-04-28 13:39 | 30.37770 | 31.08155 | 28998 ft | 394 kts | 317° |
| 2026-04-28 13:39 | 30.41771 | 31.03830 | 29010 ft | 394 kts | 317° |
| 2026-04-28 13:40 | 30.45779 | 30.99494 | 28994 ft | 394 kts | 317° |
| 2026-04-28 13:40 | 30.49768 | 30.95172 | 29006 ft | 394 kts | 317° |
| 2026-04-28 13:41 | 30.53790 | 30.90810 | 28999 ft | 393 kts | 317° |
| 2026-04-28 13:41 | 30.57782 | 30.86474 | 28997 ft | 394 kts | 317° |
| 2026-04-28 13:42 | 30.61776 | 30.82132 | 29008 ft | 393 kts | 317° |
| 2026-04-28 13:42 | 30.65764 | 30.77791 | 29001 ft | 393 kts | 317° |
| 2026-04-28 13:43 | 30.69742 | 30.73456 | 29000 ft | 393 kts | 317° |
| 2026-04-28 13:43 | 30.73719 | 30.69117 | 29001 ft | 393 kts | 317° |
| 2026-04-28 13:44 | 30.77709 | 30.64758 | 29001 ft | 393 kts | 317° |
| 2026-04-28 13:44 | 30.81699 | 30.60394 | 29001 ft | 393 kts | 317° |
| 2026-04-28 13:45 | 30.85655 | 30.56062 | 29001 ft | 393 kts | 317° |
| 2026-04-28 13:45 | 30.89632 | 30.51702 | 29001 ft | 393 kts | 317° |
| 2026-04-28 13:46 | 30.93600 | 30.47347 | 29001 ft | 393 kts | 317° |
| 2026-04-28 13:46 | 30.97593 | 30.42959 | 29001 ft | 393 kts | 317° |
| 2026-04-28 13:47 | 31.01555 | 30.38600 | 29001 ft | 392 kts | 317° |
| 2026-04-28 13:47 | 31.05516 | 30.34236 | 29001 ft | 392 kts | 316° |
| 2026-04-28 13:48 | 31.09183 | 30.29587 | 28985 ft | 392 kts | 297° |
| 2026-04-28 13:48 | 31.10994 | 30.23593 | 28998 ft | 395 kts | 288° |
| 2026-04-28 13:49 | 31.12653 | 30.17532 | 29019 ft | 391 kts | 287° |
| 2026-04-28 13:49 | 31.14299 | 30.11493 | 29010 ft | 391 kts | 287° |
| 2026-04-28 13:50 | 31.15950 | 30.05425 | 28990 ft | 392 kts | 287° |
| 2026-04-28 13:50 | 31.17584 | 29.99405 | 29000 ft | 392 kts | 287° |
| 2026-04-28 13:51 | 31.19673 | 29.93586 | 29007 ft | 391 kts | 306° |
| 2026-04-28 13:51 | 31.22905 | 29.88454 | 28976 ft | 394 kts | 306° |
| 2026-04-28 13:52 | 31.26114 | 29.83317 | 29000 ft | 392 kts | 306° |
| 2026-04-28 13:52 | 31.29317 | 29.78182 | 29016 ft | 391 kts | 306° |
| 2026-04-28 13:53 | 31.32520 | 29.73039 | 28997 ft | 391 kts | 306° |
| 2026-04-28 13:53 | 31.35698 | 29.67932 | 28995 ft | 392 kts | 306° |
| 2026-04-28 13:54 | 31.38899 | 29.62778 | 29012 ft | 391 kts | 306° |
| 2026-04-28 13:54 | 31.42096 | 29.57625 | 28996 ft | 391 kts | 306° |
| 2026-04-28 13:55 | 31.45270 | 29.52503 | 29000 ft | 391 kts | 306° |
| 2026-04-28 13:55 | 31.48469 | 29.47332 | 29006 ft | 390 kts | 306° |
| 2026-04-28 13:56 | 31.51655 | 29.42177 | 28997 ft | 391 kts | 306° |
| 2026-04-28 13:56 | 31.54828 | 29.37036 | 29000 ft | 391 kts | 306° |
| 2026-04-28 13:57 | 31.57996 | 29.31897 | 29001 ft | 390 kts | 306° |
| 2026-04-28 13:57 | 31.61182 | 29.26707 | 29002 ft | 390 kts | 305° |
| 2026-04-28 13:58 | 31.64332 | 29.21568 | 29001 ft | 390 kts | 305° |
| 2026-04-28 13:58 | 31.67512 | 29.16373 | 29001 ft | 390 kts | 305° |
| 2026-04-28 13:59 | 31.70655 | 29.11232 | 29001 ft | 390 kts | 305° |
| 2026-04-28 13:59 | 31.73810 | 29.06064 | 29001 ft | 390 kts | 306° |
| 2026-04-28 14:00 | 31.76969 | 29.00885 | 29001 ft | 390 kts | 306° |
| 2026-04-28 14:00 | 31.80116 | 28.95721 | 29001 ft | 390 kts | 306° |
| 2026-04-28 14:01 | 31.83261 | 28.90551 | 29001 ft | 390 kts | 306° |
| 2026-04-28 14:01 | 31.86414 | 28.85360 | 29001 ft | 390 kts | 306° |
| 2026-04-28 14:02 | 31.89559 | 28.80177 | 29001 ft | 389 kts | 306° |
| 2026-04-28 14:02 | 31.92707 | 28.74982 | 29001 ft | 389 kts | 306° |
| 2026-04-28 14:03 | 31.95841 | 28.69802 | 29001 ft | 389 kts | 306° |
| 2026-04-28 14:03 | 31.98975 | 28.64616 | 29001 ft | 389 kts | 306° |
| 2026-04-28 14:04 | 32.02103 | 28.59432 | 29001 ft | 389 kts | 306° |
| 2026-04-28 14:04 | 32.05224 | 28.54254 | 29001 ft | 389 kts | 306° |
| 2026-04-28 14:05 | 32.08345 | 28.49067 | 29001 ft | 389 kts | 306° |
| 2026-04-28 14:05 | 32.11486 | 28.43842 | 29001 ft | 389 kts | 305° |
| 2026-04-28 14:06 | 32.14597 | 28.38657 | 29001 ft | 389 kts | 305° |
| 2026-04-28 14:06 | 32.17714 | 28.33456 | 29001 ft | 389 kts | 305° |
| 2026-04-28 14:07 | 32.20820 | 28.28267 | 29001 ft | 388 kts | 305° |
| 2026-04-28 14:07 | 32.23929 | 28.23066 | 29001 ft | 388 kts | 305° |
| 2026-04-28 14:08 | 32.27040 | 28.17853 | 29001 ft | 388 kts | 305° |
| 2026-04-28 14:08 | 32.30143 | 28.12648 | 29001 ft | 388 kts | 305° |
| 2026-04-28 14:09 | 32.33250 | 28.07428 | 29001 ft | 388 kts | 305° |
| 2026-04-28 14:09 | 32.36351 | 28.02212 | 29001 ft | 388 kts | 305° |
| 2026-04-28 14:10 | 32.39445 | 27.97000 | 29001 ft | 388 kts | 305° |
| 2026-04-28 14:10 | 32.42533 | 27.91790 | 29001 ft | 388 kts | 305° |
| 2026-04-28 14:11 | 32.45622 | 27.86573 | 29001 ft | 388 kts | 305° |
| 2026-04-28 14:11 | 32.48714 | 27.81341 | 29001 ft | 388 kts | 305° |
| 2026-04-28 14:12 | 32.51795 | 27.76123 | 29001 ft | 388 kts | 305° |
| 2026-04-28 14:12 | 32.54881 | 27.70888 | 29001 ft | 388 kts | 305° |
| 2026-04-28 14:13 | 32.57967 | 27.65646 | 29001 ft | 388 kts | 305° |
| 2026-04-28 14:13 | 32.61048 | 27.60406 | 29001 ft | 387 kts | 305° |
| 2026-04-28 14:14 | 32.64127 | 27.55161 | 29001 ft | 387 kts | 305° |
| 2026-04-28 14:14 | 32.67195 | 27.49927 | 29001 ft | 387 kts | 305° |
| 2026-04-28 14:15 | 32.70270 | 27.44676 | 29001 ft | 387 kts | 305° |
| 2026-04-28 14:15 | 32.73339 | 27.39417 | 29001 ft | 387 kts | 305° |
| 2026-04-28 14:16 | 32.76390 | 27.34176 | 29001 ft | 387 kts | 304° |
| 2026-04-28 14:16 | 32.79433 | 27.28944 | 29001 ft | 387 kts | 304° |
| 2026-04-28 14:17 | 32.82489 | 27.23681 | 29001 ft | 387 kts | 304° |
| 2026-04-28 14:17 | 32.85540 | 27.18420 | 29001 ft | 387 kts | 304° |
| 2026-04-28 14:18 | 32.88594 | 27.13145 | 29001 ft | 387 kts | 304° |
| 2026-04-28 14:18 | 32.91650 | 27.07861 | 29001 ft | 387 kts | 304° |
| 2026-04-28 14:19 | 32.94700 | 27.02578 | 29001 ft | 387 kts | 304° |
| 2026-04-28 14:19 | 32.97737 | 26.97310 | 29001 ft | 387 kts | 304° |
| 2026-04-28 14:20 | 33.00774 | 26.92025 | 29001 ft | 387 kts | 304° |
| 2026-04-28 14:20 | 33.03796 | 26.86756 | 29001 ft | 387 kts | 304° |
| 2026-04-28 14:21 | 33.06838 | 26.81448 | 29001 ft | 387 kts | 304° |
| 2026-04-28 14:21 | 33.09865 | 26.76157 | 29001 ft | 387 kts | 304° |
| 2026-04-28 14:22 | 33.12896 | 26.70851 | 29001 ft | 387 kts | 304° |
| 2026-04-28 14:22 | 33.15904 | 26.65579 | 29001 ft | 387 kts | 304° |
| 2026-04-28 14:23 | 33.18926 | 26.60274 | 29001 ft | 387 kts | 304° |
| 2026-04-28 14:23 | 33.21947 | 26.54963 | 29001 ft | 387 kts | 304° |
| 2026-04-28 14:24 | 33.24965 | 26.49650 | 29001 ft | 387 kts | 304° |
| 2026-04-28 14:24 | 33.27973 | 26.44347 | 29001 ft | 387 kts | 304° |
| 2026-04-28 14:25 | 33.30987 | 26.39025 | 29001 ft | 387 kts | 304° |
| 2026-04-28 14:25 | 33.33989 | 26.33719 | 29001 ft | 387 kts | 304° |
| 2026-04-28 14:26 | 33.36996 | 26.28393 | 29001 ft | 387 kts | 304° |
| 2026-04-28 14:26 | 33.39981 | 26.23100 | 29001 ft | 386 kts | 304° |
| 2026-04-28 14:27 | 33.42992 | 26.17752 | 29001 ft | 386 kts | 304° |
| 2026-04-28 14:27 | 33.45983 | 26.12435 | 29001 ft | 386 kts | 304° |
| 2026-04-28 14:28 | 33.48974 | 26.07109 | 29001 ft | 386 kts | 304° |
| 2026-04-28 14:28 | 33.51983 | 26.01740 | 29001 ft | 386 kts | 304° |
| 2026-04-28 14:29 | 33.54962 | 25.96419 | 29001 ft | 386 kts | 304° |
| 2026-04-28 14:29 | 33.57951 | 25.91074 | 29001 ft | 386 kts | 304° |
| 2026-04-28 14:30 | 33.60941 | 25.85718 | 29001 ft | 386 kts | 304° |
| 2026-04-28 14:30 | 33.63920 | 25.80373 | 29001 ft | 386 kts | 304° |
| 2026-04-28 14:31 | 33.66898 | 25.75023 | 29001 ft | 386 kts | 304° |
| 2026-04-28 14:31 | 33.69871 | 25.69673 | 29001 ft | 386 kts | 304° |
| 2026-04-28 14:32 | 33.72847 | 25.64310 | 29001 ft | 386 kts | 304° |
| 2026-04-28 14:32 | 33.75816 | 25.58952 | 29001 ft | 386 kts | 304° |
| 2026-04-28 14:33 | 33.78780 | 25.53597 | 29001 ft | 386 kts | 304° |
| 2026-04-28 14:33 | 33.81743 | 25.48234 | 29001 ft | 386 kts | 304° |
| 2026-04-28 14:34 | 33.86178 | 25.40192 | 29001 ft | 386 kts | 304° |
| 2026-04-28 14:35 | 33.89147 | 25.34799 | 29001 ft | 386 kts | 303° |
| 2026-04-28 14:35 | 33.92110 | 25.29408 | 29001 ft | 386 kts | 303° |
| 2026-04-28 14:36 | 33.95045 | 25.24060 | 29001 ft | 386 kts | 303° |
| 2026-04-28 14:36 | 33.98001 | 25.18667 | 29001 ft | 386 kts | 303° |
| 2026-04-28 14:37 | 34.00595 | 25.13049 | 29001 ft | 385 kts | 289° |
| 2026-04-28 14:37 | 34.02420 | 25.06979 | 28981 ft | 387 kts | 290° |
| 2026-04-28 14:38 | 34.04245 | 25.00914 | 29001 ft | 386 kts | 290° |
| 2026-04-28 14:38 | 34.06067 | 24.94843 | 29013 ft | 385 kts | 290° |
| 2026-04-28 14:39 | 34.07884 | 24.88773 | 28995 ft | 386 kts | 290° |
| 2026-04-28 14:39 | 34.09696 | 24.82707 | 28998 ft | 386 kts | 290° |
| 2026-04-28 14:40 | 34.11503 | 24.76649 | 29008 ft | 385 kts | 290° |
| 2026-04-28 14:40 | 34.13317 | 24.70551 | 28996 ft | 386 kts | 290° |
| 2026-04-28 14:41 | 34.15122 | 24.64473 | 29004 ft | 386 kts | 290° |
| 2026-04-28 14:41 | 34.16919 | 24.58409 | 29005 ft | 385 kts | 290° |
| 2026-04-28 14:42 | 34.18719 | 24.52320 | 29002 ft | 385 kts | 290° |
| 2026-04-28 14:42 | 34.20506 | 24.46262 | 29001 ft | 385 kts | 290° |
| 2026-04-28 14:43 | 34.22299 | 24.40173 | 29001 ft | 385 kts | 290° |
| 2026-04-28 14:43 | 34.24087 | 24.34088 | 29001 ft | 385 kts | 289° |
| 2026-04-28 14:44 | 34.25875 | 24.27990 | 29001 ft | 385 kts | 289° |
| 2026-04-28 14:44 | 34.27657 | 24.21900 | 29001 ft | 385 kts | 289° |
| 2026-04-28 14:45 | 34.29441 | 24.15787 | 29001 ft | 385 kts | 289° |
| 2026-04-28 14:45 | 34.31217 | 24.09691 | 29001 ft | 385 kts | 289° |
| 2026-04-28 14:46 | 34.32980 | 24.03627 | 29001 ft | 385 kts | 289° |
| 2026-04-28 14:46 | 34.34748 | 23.97534 | 29001 ft | 385 kts | 289° |
| 2026-04-28 14:47 | 34.36520 | 23.91414 | 29001 ft | 385 kts | 289° |
| 2026-04-28 14:47 | 34.38282 | 23.85312 | 29001 ft | 385 kts | 289° |
| 2026-04-28 14:48 | 34.40040 | 23.79214 | 29001 ft | 385 kts | 289° |
| 2026-04-28 14:48 | 34.41798 | 23.73102 | 29001 ft | 385 kts | 289° |
| 2026-04-28 14:49 | 34.43548 | 23.67004 | 29001 ft | 385 kts | 289° |
| 2026-04-28 14:49 | 34.45303 | 23.60875 | 29001 ft | 385 kts | 289° |
| 2026-04-28 14:50 | 34.47046 | 23.54777 | 29001 ft | 385 kts | 289° |
| 2026-04-28 14:50 | 34.48792 | 23.48654 | 29001 ft | 385 kts | 289° |
| 2026-04-28 14:51 | 34.50528 | 23.42556 | 29001 ft | 385 kts | 289° |
| 2026-04-28 14:51 | 34.52264 | 23.36441 | 29001 ft | 385 kts | 289° |
| 2026-04-28 14:52 | 34.54003 | 23.30303 | 29001 ft | 385 kts | 289° |
| 2026-04-28 14:52 | 34.55735 | 23.24176 | 29001 ft | 385 kts | 289° |
| 2026-04-28 14:53 | 34.57462 | 23.18052 | 29001 ft | 385 kts | 289° |
| 2026-04-28 14:53 | 34.59183 | 23.11938 | 29001 ft | 384 kts | 289° |
| 2026-04-28 14:54 | 34.60899 | 23.05827 | 29001 ft | 384 kts | 289° |
| 2026-04-28 14:54 | 34.62617 | 22.99667 | 29000 ft | 384 kts | 287° |
| 2026-04-28 14:55 | 34.64069 | 22.93478 | 29001 ft | 385 kts | 286° |
| 2026-04-28 14:55 | 34.65532 | 22.87241 | 29001 ft | 384 kts | 286° |
| 2026-04-28 14:56 | 34.66993 | 22.81004 | 29001 ft | 384 kts | 286° |
| 2026-04-28 14:56 | 34.68452 | 22.74756 | 29001 ft | 384 kts | 286° |
| 2026-04-28 14:57 | 34.69899 | 22.68547 | 29001 ft | 384 kts | 286° |
| 2026-04-28 14:57 | 34.71349 | 22.62306 | 29001 ft | 384 kts | 286° |
| 2026-04-28 14:58 | 34.72793 | 22.56080 | 29001 ft | 384 kts | 286° |
| 2026-04-28 14:58 | 34.74236 | 22.49843 | 29001 ft | 384 kts | 286° |
| 2026-04-28 14:59 | 34.75674 | 22.43606 | 29001 ft | 384 kts | 286° |
| 2026-04-28 14:59 | 34.77109 | 22.37369 | 29001 ft | 384 kts | 286° |
| 2026-04-28 15:00 | 34.78545 | 22.31113 | 29001 ft | 384 kts | 285° |
| 2026-04-28 15:00 | 34.79975 | 22.24862 | 29001 ft | 384 kts | 285° |
| 2026-04-28 15:01 | 34.81402 | 22.18614 | 29001 ft | 384 kts | 285° |
| 2026-04-28 15:01 | 34.82827 | 22.12355 | 29001 ft | 384 kts | 285° |
| 2026-04-28 15:02 | 34.84242 | 22.06126 | 29001 ft | 384 kts | 285° |
| 2026-04-28 15:02 | 34.85661 | 21.99860 | 29001 ft | 384 kts | 285° |
| 2026-04-28 15:03 | 34.87073 | 21.93612 | 29001 ft | 384 kts | 285° |
| 2026-04-28 15:03 | 34.88485 | 21.87348 | 29001 ft | 384 kts | 285° |
| 2026-04-28 15:04 | 34.89891 | 21.81092 | 29001 ft | 384 kts | 285° |
| 2026-04-28 15:04 | 34.91293 | 21.74840 | 29001 ft | 384 kts | 285° |
| 2026-04-28 15:05 | 34.92696 | 21.68564 | 29001 ft | 384 kts | 285° |
| 2026-04-28 15:05 | 34.94093 | 21.62300 | 29001 ft | 384 kts | 285° |
| 2026-04-28 15:06 | 34.95480 | 21.56064 | 29001 ft | 384 kts | 285° |
| 2026-04-28 15:06 | 34.96867 | 21.49807 | 29001 ft | 384 kts | 285° |
| 2026-04-28 15:07 | 34.98257 | 21.43528 | 29001 ft | 384 kts | 285° |
| 2026-04-28 15:07 | 34.99638 | 21.37270 | 29001 ft | 384 kts | 285° |
| 2026-04-28 15:08 | 35.01019 | 21.30991 | 29001 ft | 384 kts | 285° |
| 2026-04-28 15:08 | 35.02393 | 21.24732 | 29001 ft | 384 kts | 285° |
| 2026-04-28 15:09 | 35.03770 | 21.18439 | 29001 ft | 384 kts | 285° |
| 2026-04-28 15:09 | 35.05138 | 21.12175 | 29001 ft | 384 kts | 285° |
| 2026-04-28 15:10 | 35.06507 | 21.05885 | 29001 ft | 384 kts | 285° |
| 2026-04-28 15:10 | 35.07872 | 20.99600 | 29001 ft | 384 kts | 285° |
| 2026-04-28 15:11 | 35.09232 | 20.93315 | 29001 ft | 384 kts | 285° |
| 2026-04-28 15:11 | 35.10589 | 20.87034 | 29001 ft | 384 kts | 284° |
| 2026-04-28 15:12 | 35.11938 | 20.80771 | 29001 ft | 384 kts | 284° |
| 2026-04-28 15:12 | 35.13294 | 20.74458 | 29001 ft | 384 kts | 284° |
| 2026-04-28 15:13 | 35.14634 | 20.68199 | 29001 ft | 384 kts | 284° |
| 2026-04-28 15:13 | 35.15980 | 20.61897 | 29001 ft | 383 kts | 284° |
| 2026-04-28 15:14 | 35.17321 | 20.55599 | 29001 ft | 383 kts | 284° |
| 2026-04-28 15:14 | 35.18660 | 20.49296 | 29001 ft | 383 kts | 284° |
| 2026-04-28 15:15 | 35.19989 | 20.43024 | 29001 ft | 383 kts | 284° |
| 2026-04-28 15:15 | 35.21320 | 20.36721 | 29001 ft | 383 kts | 284° |
| 2026-04-28 15:16 | 35.22643 | 20.30443 | 29001 ft | 383 kts | 284° |
| 2026-04-28 15:16 | 35.23966 | 20.24144 | 29001 ft | 383 kts | 284° |
| 2026-04-28 15:17 | 35.25284 | 20.17852 | 29001 ft | 383 kts | 284° |
| 2026-04-28 15:17 | 35.26603 | 20.11539 | 29001 ft | 383 kts | 284° |
| 2026-04-28 15:18 | 35.27920 | 20.05213 | 29001 ft | 383 kts | 284° |
| 2026-04-28 15:18 | 35.29224 | 19.98938 | 29001 ft | 383 kts | 284° |
| 2026-04-28 15:19 | 35.30538 | 19.92595 | 29001 ft | 383 kts | 284° |
| 2026-04-28 15:19 | 35.31838 | 19.86300 | 29001 ft | 383 kts | 284° |
| 2026-04-28 15:20 | 35.33139 | 19.79984 | 29001 ft | 383 kts | 284° |
| 2026-04-28 15:20 | 35.34437 | 19.73665 | 29001 ft | 383 kts | 284° |
| 2026-04-28 15:21 | 35.35722 | 19.67387 | 29001 ft | 383 kts | 284° |
| 2026-04-28 15:21 | 35.37013 | 19.61069 | 29001 ft | 383 kts | 284° |
| 2026-04-28 15:22 | 35.38305 | 19.54723 | 29001 ft | 383 kts | 284° |
| 2026-04-28 15:22 | 35.39585 | 19.48418 | 29001 ft | 383 kts | 284° |
| 2026-04-28 15:23 | 35.40861 | 19.42118 | 29001 ft | 383 kts | 284° |
| 2026-04-28 15:23 | 35.42140 | 19.35782 | 29001 ft | 383 kts | 284° |
| 2026-04-28 15:24 | 35.43415 | 19.29445 | 29001 ft | 383 kts | 283° |
| 2026-04-28 15:24 | 35.44683 | 19.23128 | 29001 ft | 383 kts | 283° |
| 2026-04-28 15:25 | 35.45952 | 19.16789 | 29001 ft | 383 kts | 283° |
| 2026-04-28 15:25 | 35.47212 | 19.10472 | 29001 ft | 383 kts | 283° |
| 2026-04-28 15:26 | 35.48470 | 19.04150 | 29001 ft | 383 kts | 283° |
| 2026-04-28 15:26 | 35.49725 | 18.97822 | 29001 ft | 383 kts | 283° |
| 2026-04-28 15:27 | 35.50976 | 18.91496 | 29001 ft | 383 kts | 283° |
| 2026-04-28 15:27 | 35.52222 | 18.85179 | 29001 ft | 383 kts | 283° |
| 2026-04-28 15:28 | 35.53471 | 18.78822 | 29001 ft | 383 kts | 283° |
| 2026-04-28 15:28 | 35.54715 | 18.72477 | 29001 ft | 383 kts | 283° |
| 2026-04-28 15:29 | 35.55950 | 18.66159 | 29001 ft | 383 kts | 283° |
| 2026-04-28 15:29 | 35.57189 | 18.59800 | 29001 ft | 383 kts | 283° |
| 2026-04-28 15:30 | 35.58419 | 18.53467 | 29001 ft | 383 kts | 283° |
| 2026-04-28 15:30 | 35.59645 | 18.47138 | 29001 ft | 383 kts | 283° |
| 2026-04-28 15:31 | 35.60876 | 18.40765 | 29001 ft | 383 kts | 283° |
| 2026-04-28 15:31 | 35.62091 | 18.34453 | 29001 ft | 383 kts | 283° |
| 2026-04-28 15:32 | 35.63234 | 18.28067 | 28994 ft | 382 kts | 277° |
| 2026-04-28 15:32 | 35.63799 | 18.21595 | 29005 ft | 383 kts | 276° |
| 2026-04-28 15:33 | 35.64360 | 18.15107 | 29006 ft | 382 kts | 276° |
| 2026-04-28 15:33 | 35.64917 | 18.08634 | 28994 ft | 383 kts | 276° |
| 2026-04-28 15:34 | 35.65474 | 18.02124 | 29007 ft | 382 kts | 276° |
| 2026-04-28 15:34 | 35.66023 | 17.95658 | 29000 ft | 382 kts | 276° |
| 2026-04-28 15:35 | 35.66572 | 17.89149 | 28998 ft | 383 kts | 276° |
| 2026-04-28 15:35 | 35.67383 | 17.79460 | 29001 ft | 382 kts | 276° |
| 2026-04-28 15:36 | 35.67924 | 17.72935 | 29001 ft | 382 kts | 276° |
| 2026-04-28 15:36 | 35.68456 | 17.66484 | 29001 ft | 382 kts | 276° |
| 2026-04-28 15:37 | 35.68990 | 17.59966 | 29001 ft | 382 kts | 276° |
| 2026-04-28 15:37 | 35.69517 | 17.53491 | 29001 ft | 382 kts | 276° |
| 2026-04-28 15:38 | 35.70042 | 17.46992 | 29001 ft | 382 kts | 276° |
| 2026-04-28 15:38 | 35.70562 | 17.40513 | 29001 ft | 382 kts | 276° |
| 2026-04-28 15:39 | 35.71079 | 17.34032 | 29001 ft | 382 kts | 275° |
| 2026-04-28 15:39 | 35.71592 | 17.27549 | 29001 ft | 382 kts | 275° |
| 2026-04-28 15:40 | 35.72102 | 17.21054 | 29001 ft | 382 kts | 275° |
| 2026-04-28 15:40 | 35.72611 | 17.14537 | 29001 ft | 382 kts | 275° |
| 2026-04-28 15:41 | 35.73112 | 17.08067 | 29001 ft | 382 kts | 275° |
| 2026-04-28 15:41 | 35.73612 | 17.01579 | 29001 ft | 382 kts | 275° |
| 2026-04-28 15:42 | 35.74108 | 16.95090 | 29001 ft | 382 kts | 275° |
| 2026-04-28 15:42 | 35.74601 | 16.88593 | 29001 ft | 382 kts | 275° |
| 2026-04-28 15:43 | 35.75091 | 16.82093 | 29001 ft | 382 kts | 275° |
| 2026-04-28 15:43 | 35.75577 | 16.75594 | 29001 ft | 382 kts | 275° |
| 2026-04-28 15:44 | 35.76059 | 16.69104 | 29001 ft | 382 kts | 275° |
| 2026-04-28 15:44 | 35.76536 | 16.62626 | 29001 ft | 382 kts | 275° |
| 2026-04-28 15:45 | 35.77011 | 16.56125 | 29001 ft | 382 kts | 275° |
| 2026-04-28 15:45 | 35.77483 | 16.49636 | 29001 ft | 382 kts | 275° |
| 2026-04-28 15:46 | 35.77954 | 16.43103 | 29001 ft | 382 kts | 275° |
| 2026-04-28 15:46 | 35.78415 | 16.36654 | 29001 ft | 382 kts | 275° |
| 2026-04-28 15:47 | 35.78875 | 16.30163 | 29001 ft | 382 kts | 275° |
| 2026-04-28 15:47 | 35.79334 | 16.23646 | 29001 ft | 382 kts | 275° |
| 2026-04-28 15:48 | 35.79789 | 16.17135 | 29001 ft | 382 kts | 275° |
| 2026-04-28 15:48 | 35.80238 | 16.10660 | 29001 ft | 382 kts | 275° |
| 2026-04-28 15:49 | 35.80686 | 16.04150 | 29001 ft | 382 kts | 275° |
| 2026-04-28 15:49 | 35.81130 | 15.97649 | 29001 ft | 382 kts | 275° |
| 2026-04-28 15:50 | 35.81569 | 15.91160 | 29001 ft | 382 kts | 275° |
| 2026-04-28 15:50 | 35.82005 | 15.84663 | 29001 ft | 382 kts | 275° |
| 2026-04-28 15:51 | 35.82438 | 15.78167 | 29001 ft | 382 kts | 275° |
| 2026-04-28 15:51 | 35.82866 | 15.71687 | 29001 ft | 382 kts | 275° |
| 2026-04-28 15:52 | 35.83293 | 15.65161 | 29001 ft | 382 kts | 275° |
| 2026-04-28 15:52 | 35.83714 | 15.58681 | 29001 ft | 381 kts | 275° |
| 2026-04-28 15:53 | 35.84135 | 15.52157 | 29001 ft | 381 kts | 275° |
| 2026-04-28 15:53 | 35.84548 | 15.45681 | 29001 ft | 381 kts | 275° |
| 2026-04-28 15:54 | 35.84961 | 15.39164 | 29001 ft | 381 kts | 275° |
| 2026-04-28 15:54 | 35.85367 | 15.32693 | 29001 ft | 381 kts | 274° |
| 2026-04-28 15:55 | 35.85774 | 15.26160 | 29001 ft | 381 kts | 274° |
| 2026-04-28 15:55 | 35.86174 | 15.19675 | 29001 ft | 381 kts | 274° |
| 2026-04-28 15:56 | 35.86572 | 15.13175 | 29001 ft | 381 kts | 274° |
| 2026-04-28 15:56 | 35.86967 | 15.06653 | 29001 ft | 381 kts | 274° |
| 2026-04-28 15:57 | 35.87356 | 15.00172 | 29001 ft | 381 kts | 274° |
| 2026-04-28 15:57 | 35.87743 | 14.93671 | 29001 ft | 381 kts | 274° |
| 2026-04-28 15:58 | 35.88126 | 14.87180 | 29001 ft | 381 kts | 274° |
| 2026-04-28 15:58 | 35.88505 | 14.80683 | 29001 ft | 381 kts | 274° |
| 2026-04-28 15:59 | 35.88882 | 14.74164 | 29001 ft | 381 kts | 274° |
| 2026-04-28 15:59 | 35.89255 | 14.67672 | 29001 ft | 381 kts | 274° |
| 2026-04-28 16:00 | 35.89625 | 14.61142 | 29001 ft | 381 kts | 274° |
| 2026-04-28 16:00 | 35.89990 | 14.54677 | 29001 ft | 381 kts | 274° |
| 2026-04-28 16:01 | 35.90352 | 14.48170 | 29001 ft | 381 kts | 274° |
| 2026-04-28 16:01 | 35.90713 | 14.41628 | 29001 ft | 381 kts | 274° |
| 2026-04-28 16:02 | 35.91065 | 14.35173 | 29001 ft | 381 kts | 274° |
| 2026-04-28 16:02 | 35.91417 | 14.28662 | 29001 ft | 381 kts | 274° |
| 2026-04-28 16:03 | 35.91766 | 14.22157 | 29001 ft | 381 kts | 274° |
| 2026-04-28 16:03 | 35.92110 | 14.15659 | 29001 ft | 381 kts | 274° |
| 2026-04-28 16:04 | 35.92451 | 14.09147 | 29001 ft | 381 kts | 274° |
| 2026-04-28 16:04 | 35.92789 | 14.02629 | 29001 ft | 381 kts | 274° |
| 2026-04-28 16:05 | 35.93123 | 13.96136 | 29001 ft | 381 kts | 274° |
| 2026-04-28 16:05 | 35.93454 | 13.89633 | 29001 ft | 381 kts | 274° |
| 2026-04-28 16:06 | 35.93779 | 13.83155 | 29001 ft | 381 kts | 274° |
| 2026-04-28 16:06 | 35.94104 | 13.76613 | 29001 ft | 381 kts | 274° |
| 2026-04-28 16:07 | 35.94424 | 13.70124 | 29001 ft | 381 kts | 274° |
| 2026-04-28 16:08 | 35.94897 | 13.60367 | 29001 ft | 381 kts | 274° |
| 2026-04-28 16:08 | 35.95208 | 13.53855 | 29001 ft | 381 kts | 274° |
| 2026-04-28 16:09 | 35.95668 | 13.44098 | 29001 ft | 381 kts | 274° |
| 2026-04-28 16:10 | 35.96120 | 13.34338 | 29001 ft | 381 kts | 273° |
| 2026-04-28 16:10 | 35.96563 | 13.24625 | 29001 ft | 381 kts | 273° |
| 2026-04-28 16:11 | 35.97195 | 13.11598 | 29001 ft | 381 kts | 273° |
| 2026-04-28 16:12 | 35.97670 | 13.01856 | 29001 ft | 380 kts | 273° |
| 2026-04-28 16:13 | 35.98140 | 12.92078 | 29001 ft | 380 kts | 273° |
| 2026-04-28 16:14 | 35.98750 | 12.79098 | 29001 ft | 380 kts | 273° |
| 2026-04-28 16:15 | 35.99349 | 12.66061 | 29001 ft | 380 kts | 273° |
| 2026-04-28 16:15 | 35.99641 | 12.59598 | 29001 ft | 380 kts | 273° |
| 2026-04-28 16:16 | 36.00074 | 12.49843 | 29001 ft | 380 kts | 273° |
| 2026-04-28 16:17 | 36.00501 | 12.40071 | 29001 ft | 380 kts | 273° |
| 2026-04-28 16:17 | 36.00779 | 12.33585 | 29001 ft | 380 kts | 273° |
| 2026-04-28 16:18 | 36.01055 | 12.27083 | 29001 ft | 380 kts | 273° |
| 2026-04-28 16:18 | 36.01328 | 12.20564 | 29001 ft | 380 kts | 273° |
| 2026-04-28 16:19 | 36.01597 | 12.14059 | 29001 ft | 380 kts | 273° |
| 2026-04-28 16:19 | 36.01862 | 12.07550 | 29001 ft | 380 kts | 273° |
| 2026-04-28 16:20 | 36.02124 | 12.01038 | 29001 ft | 380 kts | 273° |
| 2026-04-28 16:20 | 36.02383 | 11.94531 | 29001 ft | 380 kts | 273° |
| 2026-04-28 16:21 | 36.02636 | 11.88062 | 29001 ft | 380 kts | 273° |
| 2026-04-28 16:21 | 36.02889 | 11.81521 | 29001 ft | 380 kts | 273° |
| 2026-04-28 16:22 | 36.03136 | 11.75027 | 29001 ft | 380 kts | 273° |
| 2026-04-28 16:22 | 36.03380 | 11.68537 | 29001 ft | 380 kts | 273° |
| 2026-04-28 16:23 | 36.03621 | 11.62028 | 29001 ft | 380 kts | 273° |
| 2026-04-28 16:23 | 36.03857 | 11.55544 | 29001 ft | 380 kts | 273° |
| 2026-04-28 16:24 | 36.04090 | 11.49036 | 29001 ft | 380 kts | 272° |
| 2026-04-28 16:24 | 36.04316 | 11.42534 | 29001 ft | 380 kts | 272° |
| 2026-04-28 16:25 | 36.04538 | 11.36016 | 29001 ft | 380 kts | 272° |
| 2026-04-28 16:25 | 36.04760 | 11.29539 | 29001 ft | 380 kts | 272° |
| 2026-04-28 16:26 | 36.04981 | 11.23019 | 29001 ft | 380 kts | 272° |
| 2026-04-28 16:26 | 36.05198 | 11.16512 | 29001 ft | 380 kts | 272° |
| 2026-04-28 16:27 | 36.05411 | 11.10036 | 29001 ft | 380 kts | 272° |
| 2026-04-28 16:28 | 36.05726 | 11.00248 | 29001 ft | 380 kts | 272° |
| 2026-04-28 16:28 | 36.05931 | 10.93746 | 29001 ft | 380 kts | 272° |
| 2026-04-28 16:29 | 36.06231 | 10.84023 | 29001 ft | 380 kts | 272° |
| 2026-04-28 16:30 | 36.06524 | 10.74270 | 29001 ft | 380 kts | 272° |
| 2026-04-28 16:30 | 36.06715 | 10.67748 | 29001 ft | 380 kts | 272° |
| 2026-04-28 16:31 | 36.06903 | 10.61239 | 29001 ft | 380 kts | 272° |
| 2026-04-28 16:31 | 36.07085 | 10.54767 | 29001 ft | 380 kts | 272° |
| 2026-04-28 16:32 | 36.07266 | 10.48266 | 29001 ft | 380 kts | 272° |
| 2026-04-28 16:32 | 36.07824 | 10.41839 | 28992 ft | 379 kts | 289° |
| 2026-04-28 16:32 | 36.08672 | 10.38769 | 29040 ft | 380 kts | 288° |
| 2026-04-28 16:33 | 36.10063 | 10.33572 | 28996 ft | 379 kts | 288° |
| 2026-04-28 16:33 | 36.11979 | 10.26393 | 28991 ft | 379 kts | 288° |
| 2026-04-28 16:34 | 36.13625 | 10.20212 | 28997 ft | 380 kts | 288° |
| 2026-04-28 16:34 | 36.15242 | 10.14012 | 29004 ft | 379 kts | 283° |
| 2026-04-28 16:35 | 36.16070 | 10.07595 | 29010 ft | 380 kts | 278° |
| 2026-04-28 16:35 | 36.16867 | 10.01115 | 29005 ft | 379 kts | 278° |
| 2026-04-28 16:36 | 36.17650 | 9.94720 | 28993 ft | 379 kts | 278° |
| 2026-04-28 16:36 | 36.18437 | 9.88269 | 29006 ft | 379 kts | 278° |
| 2026-04-28 16:37 | 36.19218 | 9.81839 | 29000 ft | 379 kts | 278° |
| 2026-04-28 16:38 | 36.20383 | 9.72186 | 29002 ft | 379 kts | 278° |
| 2026-04-28 16:38 | 36.21156 | 9.65743 | 29000 ft | 379 kts | 278° |
| 2026-04-28 16:39 | 36.21930 | 9.59263 | 29000 ft | 379 kts | 278° |
| 2026-04-28 16:39 | 36.22693 | 9.52848 | 29001 ft | 379 kts | 278° |
| 2026-04-28 16:40 | 36.23454 | 9.46421 | 29001 ft | 379 kts | 278° |
| 2026-04-28 16:40 | 36.24216 | 9.39945 | 29001 ft | 379 kts | 278° |
| 2026-04-28 16:41 | 36.24969 | 9.33525 | 29001 ft | 379 kts | 278° |
| 2026-04-28 16:41 | 36.25954 | 9.27113 | 29006 ft | 379 kts | 281° |
| 2026-04-28 16:42 | 36.27004 | 9.20756 | 29001 ft | 379 kts | 281° |
| 2026-04-28 16:42 | 36.28051 | 9.14372 | 29001 ft | 379 kts | 281° |
| 2026-04-28 16:43 | 36.29095 | 9.07982 | 29001 ft | 379 kts | 281° |
| 2026-04-28 16:43 | 36.30138 | 9.01583 | 29001 ft | 379 kts | 281° |
| 2026-04-28 16:44 | 36.31177 | 8.95178 | 29001 ft | 379 kts | 281° |
| 2026-04-28 16:44 | 36.32209 | 8.88798 | 29001 ft | 379 kts | 281° |
| 2026-04-28 16:45 | 36.33237 | 8.82420 | 29001 ft | 379 kts | 281° |
| 2026-04-28 16:45 | 36.34259 | 8.76053 | 29001 ft | 379 kts | 281° |
| 2026-04-28 16:46 | 36.35287 | 8.69629 | 29001 ft | 379 kts | 281° |
| 2026-04-28 16:46 | 36.36303 | 8.63259 | 29001 ft | 379 kts | 281° |
| 2026-04-28 16:47 | 36.37322 | 8.56838 | 29001 ft | 379 kts | 281° |
| 2026-04-28 16:47 | 36.38329 | 8.50480 | 29001 ft | 379 kts | 281° |
| 2026-04-28 16:48 | 36.39339 | 8.44074 | 29001 ft | 379 kts | 281° |
| 2026-04-28 16:48 | 36.40348 | 8.37646 | 29000 ft | 379 kts | 281° |
| 2026-04-28 16:49 | 36.40709 | 8.31157 | 29017 ft | 379 kts | 272° |
| 2026-04-28 16:49 | 36.40948 | 8.24654 | 29000 ft | 378 kts | 272° |
| 2026-04-28 16:50 | 36.41185 | 8.18130 | 28993 ft | 379 kts | 272° |
| 2026-04-28 16:50 | 36.41419 | 8.11632 | 29008 ft | 379 kts | 272° |
| 2026-04-28 16:51 | 36.41648 | 8.05137 | 28997 ft | 378 kts | 272° |
| 2026-04-28 16:51 | 36.41875 | 7.98629 | 28998 ft | 379 kts | 272° |
| 2026-04-28 16:52 | 36.42097 | 7.92123 | 29006 ft | 378 kts | 272° |
| 2026-04-28 16:52 | 36.42319 | 7.85571 | 29002 ft | 378 kts | 272° |
| 2026-04-28 16:53 | 36.42534 | 7.79079 | 29001 ft | 378 kts | 272° |
| 2026-04-28 16:53 | 36.42747 | 7.72549 | 29001 ft | 378 kts | 272° |
| 2026-04-28 16:54 | 36.42955 | 7.66050 | 29001 ft | 378 kts | 272° |
| 2026-04-28 16:54 | 36.43160 | 7.59570 | 29001 ft | 378 kts | 272° |
| 2026-04-28 16:55 | 36.43362 | 7.53036 | 29001 ft | 378 kts | 272° |
| 2026-04-28 16:55 | 36.43561 | 7.46513 | 29001 ft | 378 kts | 272° |
| 2026-04-28 16:56 | 36.43755 | 7.40032 | 29001 ft | 378 kts | 272° |
| 2026-04-28 16:56 | 36.43946 | 7.33522 | 29001 ft | 378 kts | 272° |
| 2026-04-28 16:57 | 36.44134 | 7.26983 | 29001 ft | 378 kts | 272° |
| 2026-04-28 16:57 | 36.44318 | 7.20496 | 29001 ft | 378 kts | 272° |
| 2026-04-28 16:58 | 36.44499 | 7.13966 | 29001 ft | 378 kts | 272° |
| 2026-04-28 16:58 | 36.44675 | 7.07462 | 29000 ft | 378 kts | 272° |
| 2026-04-28 16:59 | 36.44849 | 7.00947 | 29000 ft | 378 kts | 272° |
| 2026-04-28 16:59 | 36.45018 | 6.94462 | 29000 ft | 378 kts | 272° |
| 2026-04-28 17:00 | 36.45184 | 6.87960 | 29000 ft | 378 kts | 272° |
| 2026-04-28 17:00 | 36.45348 | 6.81445 | 29000 ft | 378 kts | 272° |
| 2026-04-28 17:01 | 36.45506 | 6.74952 | 29000 ft | 378 kts | 272° |
| 2026-04-28 17:01 | 36.45663 | 6.68419 | 29001 ft | 378 kts | 272° |
| 2026-04-28 17:02 | 36.45815 | 6.61903 | 29001 ft | 378 kts | 272° |
| 2026-04-28 17:02 | 36.45963 | 6.55417 | 29001 ft | 378 kts | 272° |
| 2026-04-28 17:03 | 36.46179 | 6.45658 | 29001 ft | 378 kts | 272° |
| 2026-04-28 17:03 | 36.46319 | 6.39164 | 29001 ft | 378 kts | 272° |
| 2026-04-28 17:04 | 36.46522 | 6.29380 | 29001 ft | 378 kts | 271° |
| 2026-04-28 17:05 | 36.46717 | 6.19626 | 29001 ft | 378 kts | 271° |
| 2026-04-28 17:06 | 36.46904 | 6.09870 | 29001 ft | 378 kts | 271° |
| 2026-04-28 17:06 | 36.47084 | 6.00077 | 29001 ft | 378 kts | 271° |
| 2026-04-28 17:07 | 36.47198 | 5.93597 | 29001 ft | 378 kts | 271° |
| 2026-04-28 17:07 | 36.47310 | 5.87077 | 29001 ft | 378 kts | 271° |
| 2026-04-28 17:08 | 36.47417 | 5.80561 | 29001 ft | 378 kts | 271° |
| 2026-04-28 17:08 | 36.47520 | 5.74073 | 29000 ft | 378 kts | 271° |
| 2026-04-28 17:09 | 36.47619 | 5.67578 | 29000 ft | 378 kts | 271° |
| 2026-04-28 17:09 | 36.47715 | 5.61064 | 29000 ft | 378 kts | 271° |
| 2026-04-28 17:10 | 36.47808 | 5.54570 | 29000 ft | 378 kts | 271° |
| 2026-04-28 17:10 | 36.47897 | 5.48045 | 29000 ft | 378 kts | 271° |
| 2026-04-28 17:11 | 36.47982 | 5.41556 | 29000 ft | 378 kts | 271° |
| 2026-04-28 17:11 | 36.48064 | 5.35071 | 29000 ft | 378 kts | 271° |
| 2026-04-28 17:12 | 36.48142 | 5.28553 | 29000 ft | 377 kts | 270° |
| 2026-04-28 17:12 | 36.48217 | 5.22044 | 29000 ft | 377 kts | 270° |
| 2026-04-28 17:13 | 36.48288 | 5.15567 | 29000 ft | 377 kts | 270° |
| 2026-04-28 17:13 | 36.48356 | 5.09067 | 29000 ft | 377 kts | 270° |
| 2026-04-28 17:14 | 36.48421 | 5.02526 | 29000 ft | 377 kts | 270° |
| 2026-04-28 17:14 | 36.48089 | 4.96059 | 29008 ft | 377 kts | 263° |
| 2026-04-28 17:15 | 36.47502 | 4.89615 | 28991 ft | 378 kts | 263° |
| 2026-04-28 17:15 | 36.46912 | 4.83160 | 29002 ft | 377 kts | 263° |
| 2026-04-28 17:16 | 36.46317 | 4.76693 | 29002 ft | 377 kts | 263° |
| 2026-04-28 17:16 | 36.45720 | 4.70242 | 28996 ft | 378 kts | 263° |
| 2026-04-28 17:17 | 36.45118 | 4.63771 | 29001 ft | 377 kts | 263° |
| 2026-04-28 17:17 | 36.44513 | 4.57304 | 29001 ft | 377 kts | 263° |
| 2026-04-28 17:18 | 36.43908 | 4.50880 | 29000 ft | 377 kts | 263° |
| 2026-04-28 17:18 | 36.43296 | 4.44416 | 29000 ft | 377 kts | 263° |
| 2026-04-28 17:19 | 36.42683 | 4.37982 | 29000 ft | 377 kts | 263° |
| 2026-04-28 17:19 | 36.42065 | 4.31524 | 29000 ft | 377 kts | 263° |
| 2026-04-28 17:20 | 36.41546 | 4.26139 | 29000 ft | 377 kts | 263° |
| 2026-04-28 17:20 | 36.40819 | 4.18628 | 29000 ft | 377 kts | 263° |
| 2026-04-28 17:21 | 36.40190 | 4.12179 | 29000 ft | 377 kts | 263° |
| 2026-04-28 17:22 | 36.39247 | 4.02565 | 29000 ft | 377 kts | 263° |
| 2026-04-28 17:22 | 36.38606 | 3.96085 | 29000 ft | 377 kts | 263° |
| 2026-04-28 17:23 | 36.37648 | 3.86461 | 29001 ft | 377 kts | 263° |
| 2026-04-28 17:23 | 36.37002 | 3.80014 | 29001 ft | 377 kts | 263° |
| 2026-04-28 17:24 | 36.36355 | 3.73589 | 29001 ft | 377 kts | 263° |
| 2026-04-28 17:24 | 36.35702 | 3.67135 | 29001 ft | 377 kts | 263° |
| 2026-04-28 17:25 | 36.34718 | 3.57480 | 29001 ft | 377 kts | 263° |
| 2026-04-28 17:26 | 36.34058 | 3.51060 | 29001 ft | 377 kts | 263° |
| 2026-04-28 17:26 | 36.33395 | 3.44626 | 29001 ft | 377 kts | 263° |
| 2026-04-28 17:27 | 36.32727 | 3.38191 | 29001 ft | 377 kts | 263° |
| 2026-04-28 17:27 | 36.32060 | 3.31794 | 29000 ft | 377 kts | 262° |
| 2026-04-28 17:28 | 36.31385 | 3.25353 | 29000 ft | 377 kts | 262° |
| 2026-04-28 17:28 | 36.30368 | 3.15721 | 29000 ft | 377 kts | 262° |
| 2026-04-28 17:29 | 36.29689 | 3.09326 | 29000 ft | 377 kts | 262° |
| 2026-04-28 17:30 | 36.28660 | 2.99701 | 29000 ft | 377 kts | 262° |
| 2026-04-28 17:30 | 36.27622 | 2.90074 | 29000 ft | 377 kts | 262° |
| 2026-04-28 17:31 | 36.26576 | 2.80434 | 29000 ft | 377 kts | 262° |
| 2026-04-28 17:32 | 36.25523 | 2.70815 | 29000 ft | 376 kts | 262° |
| 2026-04-28 17:32 | 36.24819 | 2.64416 | 29000 ft | 376 kts | 262° |
| 2026-04-28 17:33 | 36.24107 | 2.58005 | 29001 ft | 376 kts | 262° |
| 2026-04-28 17:33 | 36.23513 | 2.52668 | 29001 ft | 376 kts | 262° |
| 2026-04-28 17:34 | 36.22674 | 2.45186 | 29001 ft | 376 kts | 262° |
| 2026-04-28 17:34 | 36.21953 | 2.38785 | 29001 ft | 376 kts | 262° |
| 2026-04-28 17:35 | 36.21231 | 2.32401 | 29001 ft | 376 kts | 262° |
| 2026-04-28 17:35 | 36.20504 | 2.26012 | 29001 ft | 376 kts | 262° |
| 2026-04-28 17:36 | 36.19770 | 2.19595 | 29001 ft | 376 kts | 262° |
| 2026-04-28 17:36 | 36.19036 | 2.13204 | 29001 ft | 376 kts | 262° |
| 2026-04-28 17:37 | 36.18298 | 2.06806 | 29001 ft | 376 kts | 262° |
| 2026-04-28 17:37 | 36.17560 | 2.00437 | 29001 ft | 376 kts | 262° |
| 2026-04-28 17:38 | 36.16817 | 1.94054 | 29001 ft | 376 kts | 262° |
| 2026-04-28 17:38 | 36.16072 | 1.87667 | 29001 ft | 376 kts | 262° |
| 2026-04-28 17:39 | 36.15319 | 1.81238 | 29001 ft | 376 kts | 262° |
| 2026-04-28 17:40 | 36.14192 | 1.71671 | 29001 ft | 376 kts | 262° |
| 2026-04-28 17:40 | 36.13437 | 1.65304 | 29001 ft | 376 kts | 262° |
| 2026-04-28 17:41 | 36.12676 | 1.58908 | 29001 ft | 376 kts | 262° |
| 2026-04-28 17:41 | 36.11913 | 1.52534 | 29001 ft | 376 kts | 262° |
| 2026-04-28 17:41 | 36.11369 | 1.49386 | 28983 ft | 376 kts | 249° |
| 2026-04-28 17:42 | 36.10315 | 1.46426 | 29039 ft | 375 kts | 246° |
| 2026-04-28 17:42 | 36.08199 | 1.40546 | 28996 ft | 376 kts | 246° |
| 2026-04-28 17:43 | 36.06064 | 1.34635 | 28989 ft | 376 kts | 246° |
| 2026-04-28 17:43 | 36.03947 | 1.28784 | 29004 ft | 376 kts | 246° |
| 2026-04-28 17:44 | 36.01808 | 1.22886 | 29005 ft | 376 kts | 246° |
| 2026-04-28 17:44 | 35.99672 | 1.17003 | 28996 ft | 376 kts | 246° |
| 2026-04-28 17:45 | 35.97536 | 1.11135 | 29005 ft | 376 kts | 246° |
| 2026-04-28 17:45 | 35.95400 | 1.05275 | 29004 ft | 376 kts | 246° |
| 2026-04-28 17:46 | 35.93254 | 0.99402 | 29001 ft | 376 kts | 246° |
| 2026-04-28 17:46 | 35.91107 | 0.93534 | 29001 ft | 376 kts | 246° |
| 2026-04-28 17:47 | 35.88967 | 0.87699 | 29001 ft | 376 kts | 246° |
| 2026-04-28 17:47 | 35.86816 | 0.81842 | 29001 ft | 376 kts | 246° |
| 2026-04-28 17:48 | 35.84649 | 0.75956 | 29001 ft | 376 kts | 246° |
| 2026-04-28 17:48 | 35.82492 | 0.70105 | 29001 ft | 376 kts | 246° |
| 2026-04-28 17:49 | 35.80336 | 0.64268 | 29001 ft | 376 kts | 246° |
| 2026-04-28 17:49 | 35.78178 | 0.58438 | 29001 ft | 376 kts | 246° |
| 2026-04-28 17:50 | 35.76011 | 0.52594 | 29001 ft | 376 kts | 246° |
| 2026-04-28 17:50 | 35.73849 | 0.46771 | 29001 ft | 376 kts | 246° |
| 2026-04-28 17:51 | 35.71670 | 0.40918 | 29001 ft | 376 kts | 246° |
| 2026-04-28 17:51 | 35.69497 | 0.35087 | 29001 ft | 376 kts | 246° |
| 2026-04-28 17:52 | 35.67327 | 0.29278 | 29001 ft | 376 kts | 245° |
| 2026-04-28 17:52 | 35.64053 | 0.20535 | 29001 ft | 375 kts | 245° |
| 2026-04-28 17:53 | 35.61883 | 0.14751 | 29001 ft | 375 kts | 245° |
| 2026-04-28 17:53 | 35.59686 | 0.08907 | 29001 ft | 375 kts | 245° |
| 2026-04-28 17:54 | 35.57501 | 0.03106 | 29001 ft | 375 kts | 245° |
| 2026-04-28 17:54 | 35.55307 | -0.02710 | 29001 ft | 375 kts | 245° |
| 2026-04-28 17:55 | 35.53124 | -0.08485 | 29001 ft | 375 kts | 245° |
| 2026-04-28 17:55 | 35.50925 | -0.14292 | 29001 ft | 375 kts | 245° |
| 2026-04-28 17:56 | 35.48721 | -0.20100 | 29001 ft | 375 kts | 245° |
| 2026-04-28 17:56 | 35.46535 | -0.25853 | 29001 ft | 375 kts | 245° |
| 2026-04-28 17:57 | 35.44317 | -0.31679 | 29001 ft | 375 kts | 245° |
| 2026-04-28 17:57 | 35.42124 | -0.37429 | 29001 ft | 375 kts | 245° |
| 2026-04-28 17:58 | 35.39910 | -0.43222 | 29001 ft | 375 kts | 245° |
| 2026-04-28 17:58 | 35.37701 | -0.48992 | 29001 ft | 375 kts | 245° |
| 2026-04-28 17:59 | 35.35491 | -0.54757 | 29001 ft | 375 kts | 245° |
| 2026-04-28 17:59 | 35.33272 | -0.60532 | 29001 ft | 375 kts | 245° |
| 2026-04-28 18:00 | 35.31059 | -0.66283 | 29001 ft | 375 kts | 244° |
| 2026-04-28 18:00 | 35.28827 | -0.72073 | 29001 ft | 375 kts | 244° |
| 2026-04-28 18:01 | 35.26603 | -0.77831 | 29001 ft | 375 kts | 244° |
| 2026-04-28 18:01 | 35.24372 | -0.83597 | 29001 ft | 375 kts | 244° |
| 2026-04-28 18:02 | 35.22146 | -0.89338 | 29001 ft | 375 kts | 244° |
| 2026-04-28 18:02 | 35.19915 | -0.95083 | 29001 ft | 375 kts | 244° |
| 2026-04-28 18:03 | 35.17683 | -1.00818 | 29001 ft | 375 kts | 244° |
| 2026-04-28 18:03 | 35.15437 | -1.06583 | 29001 ft | 375 kts | 244° |
| 2026-04-28 18:04 | 35.13207 | -1.12294 | 29001 ft | 375 kts | 244° |
| 2026-04-28 18:04 | 35.10964 | -1.18028 | 29001 ft | 375 kts | 244° |
| 2026-04-28 18:05 | 35.09094 | -1.22802 | 29001 ft | 375 kts | 244° |
| 2026-04-28 18:05 | 35.06474 | -1.29477 | 29001 ft | 375 kts | 244° |
| 2026-04-28 18:06 | 35.04211 | -1.35234 | 29001 ft | 375 kts | 244° |
| 2026-04-28 18:06 | 35.01957 | -1.40957 | 29001 ft | 375 kts | 244° |
| 2026-04-28 18:07 | 34.99702 | -1.46671 | 29001 ft | 375 kts | 244° |
| 2026-04-28 18:07 | 34.97449 | -1.52372 | 29001 ft | 375 kts | 244° |
| 2026-04-28 18:08 | 34.95185 | -1.58090 | 29001 ft | 375 kts | 244° |
| 2026-04-28 18:08 | 34.92921 | -1.63798 | 29001 ft | 375 kts | 244° |
| 2026-04-28 18:09 | 34.90659 | -1.69492 | 29001 ft | 375 kts | 244° |
| 2026-04-28 18:09 | 34.88397 | -1.75176 | 29001 ft | 375 kts | 244° |
| 2026-04-28 18:10 | 34.86130 | -1.80862 | 29001 ft | 375 kts | 244° |
| 2026-04-28 18:10 | 34.83365 | -1.86227 | 29018 ft | 374 kts | 230° |
| 2026-04-28 18:11 | 34.80031 | -1.91098 | 28985 ft | 375 kts | 230° |
| 2026-04-28 18:11 | 34.77038 | -1.96182 | 28981 ft | 374 kts | 250° |
| 2026-04-28 18:12 | 34.75460 | -2.02207 | 28981 ft | 377 kts | 252° |
| 2026-04-28 18:12 | 34.73882 | -2.08234 | 29006 ft | 374 kts | 252° |
| 2026-04-28 18:13 | 34.72296 | -2.14271 | 29012 ft | 374 kts | 252° |
| 2026-04-28 18:13 | 34.70713 | -2.20284 | 28995 ft | 374 kts | 252° |
| 2026-04-28 18:14 | 34.69125 | -2.26304 | 28997 ft | 375 kts | 252° |
| 2026-04-28 18:14 | 34.67541 | -2.32293 | 29007 ft | 374 kts | 252° |
| 2026-04-28 18:15 | 34.65950 | -2.38293 | 28998 ft | 374 kts | 252° |
| 2026-04-28 18:15 | 34.64358 | -2.44290 | 28999 ft | 374 kts | 252° |
| 2026-04-28 18:16 | 34.62759 | -2.50297 | 29000 ft | 374 kts | 252° |
| 2026-04-28 18:16 | 34.61159 | -2.56292 | 29000 ft | 374 kts | 252° |
| 2026-04-28 18:17 | 34.59542 | -2.62295 | 29001 ft | 374 kts | 252° |
| 2026-04-28 18:17 | 34.57908 | -2.68271 | 29001 ft | 374 kts | 251° |
| 2026-04-28 18:18 | 34.56270 | -2.74248 | 29001 ft | 374 kts | 251° |
| 2026-04-28 18:18 | 34.54922 | -2.79224 | 29001 ft | 374 kts | 252° |
| 2026-04-28 18:19 | 34.53035 | -2.86197 | 29001 ft | 374 kts | 252° |
| 2026-04-28 18:19 | 34.51409 | -2.92194 | 29001 ft | 374 kts | 252° |
| 2026-04-28 18:20 | 34.49790 | -2.98147 | 29001 ft | 374 kts | 252° |
| 2026-04-28 18:20 | 34.48162 | -3.04123 | 29001 ft | 374 kts | 252° |
| 2026-04-28 18:21 | 34.46530 | -3.10100 | 29001 ft | 374 kts | 252° |
| 2026-04-28 18:21 | 34.44897 | -3.16068 | 29001 ft | 374 kts | 252° |
| 2026-04-28 18:22 | 34.43261 | -3.22035 | 29001 ft | 374 kts | 252° |
| 2026-04-28 18:22 | 34.41616 | -3.28018 | 29001 ft | 374 kts | 252° |
| 2026-04-28 18:23 | 34.39982 | -3.33953 | 29001 ft | 374 kts | 252° |
| 2026-04-28 18:23 | 34.38334 | -3.39922 | 29001 ft | 374 kts | 252° |
| 2026-04-28 18:24 | 34.36958 | -3.44901 | 29001 ft | 374 kts | 252° |
| 2026-04-28 18:24 | 34.35070 | -3.51824 | 29001 ft | 374 kts | 252° |
| 2026-04-28 18:25 | 34.33446 | -3.57826 | 29001 ft | 374 kts | 252° |
| 2026-04-28 18:26 | 34.31016 | -3.66779 | 29001 ft | 374 kts | 251° |
| 2026-04-28 18:26 | 34.29399 | -3.72724 | 29001 ft | 374 kts | 251° |
| 2026-04-28 18:27 | 34.27775 | -3.78679 | 29001 ft | 374 kts | 251° |
| 2026-04-28 18:27 | 34.26147 | -3.84640 | 29001 ft | 374 kts | 251° |
| 2026-04-28 18:28 | 34.24520 | -3.90580 | 29001 ft | 374 kts | 251° |
| 2026-04-28 18:28 | 34.22890 | -3.96517 | 29001 ft | 374 kts | 251° |
| 2026-04-28 18:29 | 34.21251 | -4.02481 | 29001 ft | 374 kts | 251° |
| 2026-04-28 18:29 | 34.19621 | -4.08391 | 29001 ft | 374 kts | 251° |
| 2026-04-28 18:30 | 34.17979 | -4.14338 | 29001 ft | 374 kts | 251° |
| 2026-04-28 18:30 | 34.16307 | -4.20263 | 29001 ft | 374 kts | 251° |
| 2026-04-28 18:31 | 34.14611 | -4.26176 | 29001 ft | 374 kts | 251° |
| 2026-04-28 18:31 | 34.12911 | -4.32092 | 29001 ft | 374 kts | 251° |
| 2026-04-28 18:32 | 34.11211 | -4.37993 | 29001 ft | 374 kts | 251° |
| 2026-04-28 18:32 | 34.09506 | -4.43898 | 29001 ft | 374 kts | 251° |
| 2026-04-28 18:33 | 34.07795 | -4.49815 | 29001 ft | 374 kts | 251° |
| 2026-04-28 18:33 | 34.06083 | -4.55724 | 29001 ft | 373 kts | 251° |
| 2026-04-28 18:34 | 34.04372 | -4.61613 | 29001 ft | 373 kts | 251° |
| 2026-04-28 18:34 | 34.02660 | -4.67496 | 29001 ft | 373 kts | 250° |
| 2026-04-28 18:35 | 34.00937 | -4.73403 | 29001 ft | 373 kts | 250° |
| 2026-04-28 18:35 | 33.99221 | -4.79276 | 29001 ft | 373 kts | 250° |
| 2026-04-28 18:36 | 33.97492 | -4.85181 | 29001 ft | 373 kts | 250° |
| 2026-04-28 18:36 | 33.95771 | -4.91046 | 29001 ft | 373 kts | 250° |
| 2026-04-28 18:37 | 33.94038 | -4.96939 | 29000 ft | 373 kts | 250° |
| 2026-04-28 18:37 | 33.92506 | -5.02883 | 28990 ft | 373 kts | 261° |
| 2026-04-28 18:38 | 33.91655 | -5.09025 | 28990 ft | 375 kts | 260° |
| 2026-04-28 18:38 | 33.90782 | -5.15190 | 29007 ft | 373 kts | 260° |
| 2026-04-28 18:39 | 33.89909 | -5.21325 | 29004 ft | 373 kts | 260° |
| 2026-04-28 18:39 | 33.89032 | -5.27456 | 28995 ft | 373 kts | 260° |
| 2026-04-28 18:40 | 33.88148 | -5.33620 | 29006 ft | 373 kts | 260° |
| 2026-04-28 18:40 | 33.87266 | -5.39751 | 29003 ft | 373 kts | 260° |
| 2026-04-28 18:41 | 33.86378 | -5.45897 | 29001 ft | 373 kts | 260° |
| 2026-04-28 18:41 | 33.85493 | -5.51999 | 29001 ft | 373 kts | 260° |
| 2026-04-28 18:42 | 33.84599 | -5.58146 | 29001 ft | 373 kts | 260° |
| 2026-04-28 18:42 | 33.83702 | -5.64289 | 28989 ft | 374 kts | 260° |
| 2026-04-28 18:42 | 33.83248 | -5.67383 | 28650 ft | 379 kts | 260° |
| 2026-04-28 18:43 | 33.82797 | -5.70463 | 28253 ft | 377 kts | 260° |
| 2026-04-28 18:43 | 33.82342 | -5.73557 | 27885 ft | 373 kts | 260° |
| 2026-04-28 18:43 | 33.81896 | -5.76586 | 27509 ft | 369 kts | 260° |
| 2026-04-28 18:43 | 33.81447 | -5.79628 | 27125 ft | 366 kts | 260° |
| 2026-04-28 18:44 | 33.81005 | -5.82616 | 26746 ft | 362 kts | 260° |
| 2026-04-28 18:44 | 33.80131 | -5.88513 | 25988 ft | 356 kts | 260° |
| 2026-04-28 18:44 | 33.79699 | -5.91418 | 25610 ft | 353 kts | 260° |
| 2026-04-28 18:45 | 33.79275 | -5.94264 | 25237 ft | 350 kts | 260° |
| 2026-04-28 18:45 | 33.78848 | -5.97128 | 24860 ft | 347 kts | 260° |
| 2026-04-28 18:45 | 33.78420 | -5.99994 | 24479 ft | 345 kts | 260° |
| 2026-04-28 18:45 | 33.78001 | -6.02793 | 24104 ft | 342 kts | 260° |
| 2026-04-28 18:46 | 33.77584 | -6.05576 | 23730 ft | 340 kts | 260° |
| 2026-04-28 18:46 | 33.77167 | -6.08357 | 23354 ft | 338 kts | 260° |
| 2026-04-28 18:46 | 33.76749 | -6.11137 | 22975 ft | 336 kts | 260° |
| 2026-04-28 18:46 | 33.76339 | -6.13861 | 22602 ft | 334 kts | 260° |
| 2026-04-28 18:47 | 33.75925 | -6.16602 | 22225 ft | 332 kts | 260° |
| 2026-04-28 18:47 | 33.75516 | -6.19313 | 21850 ft | 330 kts | 260° |
| 2026-04-28 18:47 | 33.75108 | -6.22011 | 21475 ft | 328 kts | 260° |
| 2026-04-28 18:47 | 33.74702 | -6.24691 | 21101 ft | 327 kts | 260° |
| 2026-04-28 18:48 | 33.74298 | -6.27351 | 20728 ft | 325 kts | 260° |
| 2026-04-28 18:48 | 33.73891 | -6.30029 | 20351 ft | 324 kts | 260° |
| 2026-04-28 18:48 | 33.73490 | -6.32662 | 19979 ft | 322 kts | 260° |
| 2026-04-28 18:48 | 33.73093 | -6.35302 | 19604 ft | 321 kts | 260° |
| 2026-04-28 18:49 | 33.72702 | -6.37914 | 19232 ft | 320 kts | 260° |
| 2026-04-28 18:49 | 33.72437 | -6.39680 | 18980 ft | 319 kts | 260° |
| 2026-04-28 18:49 | 33.71920 | -6.43122 | 18487 ft | 317 kts | 260° |
| 2026-04-28 18:49 | 33.71526 | -6.45734 | 18112 ft | 316 kts | 260° |
| 2026-04-28 18:50 | 33.71139 | -6.48305 | 17741 ft | 315 kts | 260° |
| 2026-04-28 18:50 | 33.70748 | -6.50889 | 17367 ft | 314 kts | 260° |
| 2026-04-28 18:50 | 33.70360 | -6.53458 | 16994 ft | 313 kts | 260° |
| 2026-04-28 18:50 | 33.69973 | -6.56015 | 16622 ft | 312 kts | 260° |
| 2026-04-28 18:51 | 33.69580 | -6.58576 | 16248 ft | 311 kts | 259° |
| 2026-04-28 18:51 | 33.69179 | -6.61125 | 15875 ft | 311 kts | 259° |
| 2026-04-28 18:51 | 33.68782 | -6.63659 | 15503 ft | 310 kts | 259° |
| 2026-04-28 18:51 | 33.68386 | -6.66183 | 15132 ft | 309 kts | 259° |
| 2026-04-28 18:52 | 33.67985 | -6.68729 | 14756 ft | 308 kts | 259° |
| 2026-04-28 18:52 | 33.67591 | -6.71234 | 14386 ft | 308 kts | 259° |
| 2026-04-28 18:52 | 33.67195 | -6.73740 | 14015 ft | 307 kts | 259° |
| 2026-04-28 18:52 | 33.66800 | -6.76244 | 13643 ft | 306 kts | 259° |
| 2026-04-28 18:53 | 33.66403 | -6.78754 | 13270 ft | 306 kts | 259° |
| 2026-04-28 18:53 | 33.66003 | -6.81278 | 12894 ft | 305 kts | 259° |
| 2026-04-28 18:53 | 33.65612 | -6.83745 | 12526 ft | 305 kts | 259° |
| 2026-04-28 18:53 | 33.65208 | -6.86231 | 12150 ft | 304 kts | 256° |
| 2026-04-28 18:54 | 33.64316 | -6.88497 | 11756 ft | 302 kts | 231° |
| 2026-04-28 18:54 | 33.62709 | -6.90108 | 11405 ft | 300 kts | 206° |
| 2026-04-28 18:54 | 33.60765 | -6.90942 | 11072 ft | 298 kts | 198° |
| 2026-04-28 18:54 | 33.58803 | -6.91710 | 10703 ft | 297 kts | 198° |
| 2026-04-28 18:55 | 33.56844 | -6.92481 | 10332 ft | 297 kts | 198° |
| 2026-04-28 18:55 | 33.55512 | -6.93007 | 10082 ft | 297 kts | 198° |
| 2026-04-28 18:55 | 33.52954 | -6.94017 | 9998 ft | 281 kts | 198° |
| 2026-04-28 18:55 | 33.51134 | -6.94736 | 9985 ft | 269 kts | 198° |
| 2026-04-28 18:56 | 33.49399 | -6.95421 | 9972 ft | 257 kts | 198° |
| 2026-04-28 18:56 | 33.47746 | -6.96074 | 9983 ft | 244 kts | 198° |
| 2026-04-28 18:56 | 33.46155 | -6.96702 | 9987 ft | 239 kts | 198° |
| 2026-04-28 18:56 | 33.44571 | -6.97328 | 10007 ft | 239 kts | 198° |
| 2026-04-28 18:57 | 33.42984 | -6.97954 | 9998 ft | 240 kts | 198° |
| 2026-04-28 18:57 | 33.41386 | -6.98584 | 10001 ft | 240 kts | 198° |
| 2026-04-28 18:57 | 33.39806 | -6.99207 | 10004 ft | 240 kts | 198° |
| 2026-04-28 18:57 | 33.38216 | -6.99834 | 9997 ft | 240 kts | 198° |
| 2026-04-28 18:58 | 33.36614 | -7.00466 | 10001 ft | 240 kts | 198° |
| 2026-04-28 18:58 | 33.35040 | -7.01086 | 10004 ft | 240 kts | 198° |
| 2026-04-28 18:58 | 33.33443 | -7.01715 | 9998 ft | 240 kts | 198° |
| 2026-04-28 18:58 | 33.31848 | -7.02343 | 10000 ft | 240 kts | 198° |
| 2026-04-28 18:59 | 33.30277 | -7.02962 | 10004 ft | 240 kts | 198° |
| 2026-04-28 18:59 | 33.28682 | -7.03589 | 9999 ft | 240 kts | 198° |
| 2026-04-28 18:59 | 33.27096 | -7.04212 | 9999 ft | 240 kts | 198° |
| 2026-04-28 18:59 | 33.25494 | -7.04842 | 10004 ft | 240 kts | 198° |
| 2026-04-28 19:00 | 33.23915 | -7.05462 | 10000 ft | 240 kts | 198° |
| 2026-04-28 19:00 | 33.22332 | -7.06083 | 9999 ft | 240 kts | 198° |
| 2026-04-28 19:00 | 33.20730 | -7.06712 | 10003 ft | 240 kts | 198° |
| 2026-04-28 19:00 | 33.19186 | -7.07479 | 9972 ft | 241 kts | 217° |
| 2026-04-28 19:01 | 33.18137 | -7.08983 | 10046 ft | 240 kts | 248° |
| 2026-04-28 19:01 | 33.17757 | -7.10941 | 10037 ft | 241 kts | 261° |
| 2026-04-28 19:01 | 33.17469 | -7.12904 | 9995 ft | 241 kts | 259° |
| 2026-04-28 19:01 | 33.17170 | -7.14856 | 10003 ft | 240 kts | 259° |
| 2026-04-28 19:02 | 33.16867 | -7.16810 | 10003 ft | 240 kts | 259° |
| 2026-04-28 19:02 | 33.16562 | -7.18772 | 9996 ft | 240 kts | 259° |
| 2026-04-28 19:02 | 33.16258 | -7.20727 | 10006 ft | 240 kts | 259° |
| 2026-04-28 19:02 | 33.15954 | -7.22682 | 10000 ft | 240 kts | 259° |
| 2026-04-28 19:03 | 33.15648 | -7.24645 | 9998 ft | 240 kts | 259° |
| 2026-04-28 19:03 | 33.15472 | -7.26608 | 9977 ft | 241 kts | 278° |
| 2026-04-28 19:03 | 33.16077 | -7.28438 | 10043 ft | 240 kts | 308° |
| 2026-04-28 19:03 | 33.17155 | -7.29966 | 10026 ft | 242 kts | 309° |
| 2026-04-28 19:04 | 33.18224 | -7.31528 | 9989 ft | 240 kts | 309° |
| 2026-04-28 19:04 | 33.19273 | -7.33056 | 10012 ft | 240 kts | 309° |
| 2026-04-28 19:04 | 33.20336 | -7.34609 | 9994 ft | 240 kts | 309° |
| 2026-04-28 19:04 | 33.21384 | -7.36139 | 10004 ft | 240 kts | 309° |
| 2026-04-28 19:05 | 33.22444 | -7.37687 | 10002 ft | 240 kts | 309° |
| 2026-04-28 19:05 | 33.23497 | -7.39225 | 9997 ft | 240 kts | 309° |
| 2026-04-28 19:05 | 33.24562 | -7.40783 | 10005 ft | 240 kts | 309° |
| 2026-04-28 19:05 | 33.25610 | -7.42316 | 10001 ft | 240 kts | 309° |
| 2026-04-28 19:06 | 33.26666 | -7.43861 | 9998 ft | 240 kts | 309° |
| 2026-04-28 19:06 | 33.27380 | -7.44905 | 10002 ft | 240 kts | 309° |
| 2026-04-28 19:06 | 33.28780 | -7.46956 | 10001 ft | 240 kts | 309° |
| 2026-04-28 19:06 | 33.29833 | -7.48499 | 9998 ft | 240 kts | 309° |
| 2026-04-28 19:07 | 33.30900 | -7.50063 | 10004 ft | 240 kts | 309° |
| 2026-04-28 19:07 | 33.31952 | -7.51606 | 10002 ft | 240 kts | 309° |
| 2026-04-28 19:07 | 33.33003 | -7.53147 | 9999 ft | 240 kts | 309° |
| 2026-04-28 19:07 | 33.34057 | -7.54695 | 10002 ft | 240 kts | 309° |
| 2026-04-28 19:08 | 33.35114 | -7.56247 | 10004 ft | 240 kts | 309° |
| 2026-04-28 19:08 | 33.36164 | -7.57788 | 9999 ft | 240 kts | 309° |
| 2026-04-28 19:08 | 33.37221 | -7.59342 | 10001 ft | 240 kts | 309° |
| 2026-04-28 19:08 | 33.38272 | -7.60886 | 10003 ft | 240 kts | 309° |
| 2026-04-28 19:09 | 33.39328 | -7.62439 | 10001 ft | 240 kts | 309° |
| 2026-04-28 19:09 | 33.40389 | -7.64000 | 10002 ft | 240 kts | 309° |
| 2026-04-28 19:09 | 33.41438 | -7.65543 | 10001 ft | 240 kts | 309° |
| 2026-04-28 19:09 | 33.42484 | -7.67083 | 10001 ft | 240 kts | 309° |
| 2026-04-28 19:10 | 33.43546 | -7.68647 | 10001 ft | 240 kts | 309° |
| 2026-04-28 19:10 | 33.44590 | -7.70186 | 10001 ft | 240 kts | 309° |
| 2026-04-28 19:10 | 33.45651 | -7.71750 | 10001 ft | 240 kts | 309° |
| 2026-04-28 19:10 | 33.46692 | -7.73285 | 10001 ft | 240 kts | 309° |
| 2026-04-28 19:11 | 33.47754 | -7.74852 | 10001 ft | 240 kts | 309° |
| 2026-04-28 19:11 | 33.48796 | -7.76390 | 10001 ft | 240 kts | 309° |
| 2026-04-28 19:11 | 33.49847 | -7.77942 | 10001 ft | 240 kts | 309° |
| 2026-04-28 19:11 | 33.50912 | -7.79515 | 10001 ft | 240 kts | 309° |
| 2026-04-28 19:12 | 33.51953 | -7.81053 | 10001 ft | 240 kts | 309° |
| 2026-04-28 19:12 | 33.53009 | -7.82613 | 10001 ft | 240 kts | 309° |
| 2026-04-28 19:12 | 33.54065 | -7.84172 | 10001 ft | 240 kts | 309° |
| 2026-04-28 19:12 | 33.55111 | -7.85720 | 10001 ft | 240 kts | 309° |
| 2026-04-28 19:13 | 33.56159 | -7.87269 | 10001 ft | 240 kts | 309° |
| 2026-04-28 19:13 | 33.57220 | -7.88839 | 10001 ft | 240 kts | 309° |
| 2026-04-28 19:13 | 33.58263 | -7.90381 | 10001 ft | 240 kts | 309° |
| 2026-04-28 19:13 | 33.59322 | -7.91950 | 10001 ft | 240 kts | 309° |
| 2026-04-28 19:14 | 33.60366 | -7.93495 | 10001 ft | 240 kts | 309° |
| 2026-04-28 19:14 | 33.61414 | -7.95046 | 10001 ft | 240 kts | 309° |
| 2026-04-28 19:14 | 33.62469 | -7.96609 | 10001 ft | 240 kts | 309° |
| 2026-04-28 19:14 | 33.63526 | -7.98175 | 10001 ft | 240 kts | 309° |
| 2026-04-28 19:15 | 33.64571 | -7.99724 | 10001 ft | 240 kts | 309° |
| 2026-04-28 19:15 | 33.65617 | -8.01274 | 10001 ft | 240 kts | 309° |
| 2026-04-28 19:15 | 33.66677 | -8.02845 | 10001 ft | 240 kts | 309° |
| 2026-04-28 19:15 | 33.67375 | -8.03881 | 10001 ft | 240 kts | 309° |
| 2026-04-28 19:16 | 33.68773 | -8.05954 | 10002 ft | 240 kts | 309° |
| 2026-04-28 19:16 | 33.69817 | -8.07503 | 10002 ft | 240 kts | 309° |
| 2026-04-28 19:16 | 33.70877 | -8.09077 | 10002 ft | 240 kts | 309° |
| 2026-04-28 19:16 | 33.71921 | -8.10627 | 10002 ft | 240 kts | 309° |
| 2026-04-28 19:17 | 33.72966 | -8.12179 | 10002 ft | 240 kts | 309° |
| 2026-04-28 19:17 | 33.74027 | -8.13755 | 10002 ft | 240 kts | 309° |
| 2026-04-28 19:17 | 33.75069 | -8.15303 | 10002 ft | 240 kts | 309° |
| 2026-04-28 19:17 | 33.76127 | -8.16876 | 10002 ft | 240 kts | 309° |
| 2026-04-28 19:18 | 33.77172 | -8.18429 | 10002 ft | 240 kts | 309° |
| 2026-04-28 19:18 | 33.78215 | -8.19980 | 10002 ft | 240 kts | 309° |
| 2026-04-28 19:18 | 33.79268 | -8.21547 | 10002 ft | 240 kts | 309° |
| 2026-04-28 19:18 | 33.80312 | -8.23100 | 10002 ft | 240 kts | 309° |
| 2026-04-28 19:19 | 33.81371 | -8.24676 | 10002 ft | 240 kts | 309° |
| 2026-04-28 19:19 | 33.82415 | -8.26230 | 10002 ft | 240 kts | 309° |
| 2026-04-28 19:19 | 33.83458 | -8.27784 | 10002 ft | 240 kts | 309° |
| 2026-04-28 19:19 | 33.84517 | -8.29361 | 10002 ft | 240 kts | 309° |
| 2026-04-28 19:20 | 33.85560 | -8.30915 | 10002 ft | 240 kts | 309° |
| 2026-04-28 19:20 | 33.86616 | -8.32489 | 10002 ft | 240 kts | 309° |
| 2026-04-28 19:20 | 33.87657 | -8.34041 | 10002 ft | 240 kts | 309° |
| 2026-04-28 19:20 | 33.88701 | -8.35596 | 10002 ft | 240 kts | 309° |
| 2026-04-28 19:21 | 33.89759 | -8.37176 | 10002 ft | 240 kts | 309° |
| 2026-04-28 19:21 | 33.90807 | -8.38739 | 10002 ft | 240 kts | 309° |
| 2026-04-28 19:21 | 33.91848 | -8.40291 | 10002 ft | 240 kts | 309° |
| 2026-04-28 19:21 | 33.92900 | -8.41863 | 10002 ft | 240 kts | 309° |
| 2026-04-28 19:22 | 33.93944 | -8.43422 | 10002 ft | 240 kts | 309° |
| 2026-04-28 19:22 | 33.94651 | -8.44478 | 10002 ft | 240 kts | 309° |
| 2026-04-28 19:22 | 33.96040 | -8.46552 | 10002 ft | 240 kts | 309° |
| 2026-04-28 19:22 | 33.97097 | -8.48132 | 10002 ft | 240 kts | 309° |
| 2026-04-28 19:23 | 33.98143 | -8.49695 | 10002 ft | 240 kts | 309° |
| 2026-04-28 19:23 | 33.99186 | -8.51254 | 10002 ft | 240 kts | 309° |
| 2026-04-28 19:23 | 34.00228 | -8.52813 | 10002 ft | 240 kts | 309° |
| 2026-04-28 19:23 | 34.01284 | -8.54392 | 10002 ft | 240 kts | 309° |
| 2026-04-28 19:24 | 34.02326 | -8.55952 | 10002 ft | 240 kts | 309° |
| 2026-04-28 19:24 | 34.03369 | -8.57513 | 10002 ft | 240 kts | 309° |
| 2026-04-28 19:24 | 34.04422 | -8.59089 | 10002 ft | 240 kts | 309° |
| 2026-04-28 19:24 | 34.05460 | -8.60644 | 10002 ft | 240 kts | 309° |
| 2026-04-28 19:25 | 34.06515 | -8.62224 | 10002 ft | 240 kts | 309° |
| 2026-04-28 19:25 | 34.07556 | -8.63784 | 10002 ft | 240 kts | 309° |
| 2026-04-28 19:25 | 34.08601 | -8.65351 | 10002 ft | 240 kts | 308° |
| 2026-04-28 19:25 | 34.09660 | -8.66937 | 10001 ft | 240 kts | 308° |
| 2026-04-28 19:26 | 34.10703 | -8.68501 | 10001 ft | 240 kts | 308° |
| 2026-04-28 19:26 | 34.11745 | -8.70064 | 10002 ft | 240 kts | 308° |
| 2026-04-28 19:26 | 34.12786 | -8.71627 | 10002 ft | 240 kts | 308° |
| 2026-04-28 19:26 | 34.13837 | -8.73203 | 10001 ft | 240 kts | 308° |
| 2026-04-28 19:27 | 34.14877 | -8.74765 | 10001 ft | 240 kts | 308° |
| 2026-04-28 19:27 | 34.15931 | -8.76348 | 10001 ft | 240 kts | 308° |
| 2026-04-28 19:27 | 34.16972 | -8.77911 | 10001 ft | 240 kts | 308° |
| 2026-04-28 19:27 | 34.18018 | -8.79484 | 10001 ft | 240 kts | 308° |
| 2026-04-28 19:28 | 34.19060 | -8.81049 | 10001 ft | 240 kts | 308° |
| 2026-04-28 19:28 | 34.20117 | -8.82638 | 10001 ft | 240 kts | 308° |
| 2026-04-28 19:28 | 34.21153 | -8.84196 | 10001 ft | 240 kts | 308° |
| 2026-04-28 19:28 | 34.22207 | -8.85780 | 10001 ft | 240 kts | 308° |
| 2026-04-28 19:29 | 34.23248 | -8.87347 | 10001 ft | 240 kts | 308° |
| 2026-04-28 19:29 | 34.23940 | -8.88388 | 10001 ft | 240 kts | 308° |
| 2026-04-28 19:29 | 34.25340 | -8.90496 | 10001 ft | 240 kts | 308° |
| 2026-04-28 19:29 | 34.26390 | -8.92077 | 10001 ft | 240 kts | 308° |
| 2026-04-28 19:30 | 34.27428 | -8.93641 | 10001 ft | 240 kts | 308° |
| 2026-04-28 19:30 | 34.28478 | -8.95222 | 10001 ft | 240 kts | 308° |
| 2026-04-28 19:30 | 34.29515 | -8.96786 | 10001 ft | 240 kts | 308° |
| 2026-04-28 19:30 | 34.30557 | -8.98356 | 10001 ft | 240 kts | 308° |
| 2026-04-28 19:31 | 34.31601 | -8.99930 | 10001 ft | 240 kts | 308° |
| 2026-04-28 19:31 | 34.32655 | -9.01521 | 10001 ft | 240 kts | 308° |
| 2026-04-28 19:31 | 34.33696 | -9.03091 | 10001 ft | 240 kts | 308° |
| 2026-04-28 19:31 | 34.34735 | -9.04659 | 10001 ft | 240 kts | 308° |
| 2026-04-28 19:32 | 34.35784 | -9.06243 | 10001 ft | 240 kts | 308° |
| 2026-04-28 19:32 | 34.36835 | -9.07828 | 10001 ft | 240 kts | 308° |
| 2026-04-28 19:32 | 34.37865 | -9.09384 | 10001 ft | 240 kts | 308° |
| 2026-04-28 19:32 | 34.38911 | -9.10964 | 10001 ft | 240 kts | 308° |
| 2026-04-28 19:33 | 34.39957 | -9.12545 | 10001 ft | 240 kts | 308° |
| 2026-04-28 19:33 | 34.41003 | -9.14126 | 10001 ft | 240 kts | 308° |
| 2026-04-28 19:33 | 34.42046 | -9.15702 | 10001 ft | 240 kts | 308° |
| 2026-04-28 19:33 | 34.43087 | -9.17277 | 10001 ft | 240 kts | 308° |
| 2026-04-28 19:34 | 34.44137 | -9.18866 | 10001 ft | 240 kts | 309° |
| 2026-04-28 19:34 | 34.45169 | -9.20427 | 10001 ft | 240 kts | 309° |
| 2026-04-28 19:34 | 34.46216 | -9.22011 | 10001 ft | 240 kts | 309° |
| 2026-04-28 19:34 | 34.47266 | -9.23601 | 10001 ft | 240 kts | 309° |
| 2026-04-28 19:35 | 34.48300 | -9.25168 | 10001 ft | 240 kts | 309° |
| 2026-04-28 19:35 | 34.49347 | -9.26753 | 10001 ft | 240 kts | 309° |
| 2026-04-28 19:35 | 34.50396 | -9.28342 | 10001 ft | 240 kts | 309° |
| 2026-04-28 19:35 | 34.51433 | -9.29914 | 10001 ft | 240 kts | 309° |
| 2026-04-28 19:36 | 34.52478 | -9.31500 | 10001 ft | 240 kts | 309° |
| 2026-04-28 19:36 | 34.53511 | -9.33066 | 10001 ft | 240 kts | 309° |
| 2026-04-28 19:36 | 34.54561 | -9.34658 | 10001 ft | 240 kts | 309° |
| 2026-04-28 19:36 | 34.55593 | -9.36225 | 10001 ft | 240 kts | 309° |
| 2026-04-28 19:37 | 34.56646 | -9.37822 | 10001 ft | 240 kts | 309° |
| 2026-04-28 19:37 | 34.57336 | -9.38870 | 10001 ft | 240 kts | 309° |
| 2026-04-28 19:37 | 34.58720 | -9.40972 | 10001 ft | 240 kts | 309° |
| 2026-04-28 19:37 | 34.59765 | -9.42559 | 10001 ft | 240 kts | 309° |
| 2026-04-28 19:38 | 34.60815 | -9.44155 | 10001 ft | 240 kts | 309° |
| 2026-04-28 19:38 | 34.61849 | -9.45725 | 10001 ft | 240 kts | 309° |
| 2026-04-28 19:38 | 34.62896 | -9.47318 | 10001 ft | 240 kts | 309° |
| 2026-04-28 19:38 | 34.63925 | -9.48881 | 10001 ft | 240 kts | 309° |
| 2026-04-28 19:39 | 34.64969 | -9.50469 | 10001 ft | 240 kts | 309° |
| 2026-04-28 19:39 | 34.66012 | -9.52055 | 10001 ft | 240 kts | 309° |
| 2026-04-28 19:39 | 34.67056 | -9.53644 | 10001 ft | 240 kts | 309° |
| 2026-04-28 19:39 | 34.68100 | -9.55233 | 10001 ft | 240 kts | 309° |
| 2026-04-28 19:40 | 34.69133 | -9.56806 | 10001 ft | 240 kts | 309° |
| 2026-04-28 19:40 | 34.70180 | -9.58399 | 10001 ft | 240 kts | 309° |
| 2026-04-28 19:40 | 34.71211 | -9.59970 | 10001 ft | 240 kts | 309° |
| 2026-04-28 19:40 | 34.72260 | -9.61568 | 10001 ft | 240 kts | 309° |
| 2026-04-28 19:41 | 34.73306 | -9.63162 | 10001 ft | 240 kts | 309° |
| 2026-04-28 19:41 | 34.74341 | -9.64739 | 10001 ft | 240 kts | 309° |
| 2026-04-28 19:41 | 34.75378 | -9.66321 | 10001 ft | 240 kts | 308° |
| 2026-04-28 19:41 | 34.76426 | -9.67919 | 10001 ft | 240 kts | 308° |
| 2026-04-28 19:42 | 34.77466 | -9.69507 | 10001 ft | 240 kts | 308° |
| 2026-04-28 19:42 | 34.78495 | -9.71078 | 10001 ft | 240 kts | 308° |
| 2026-04-28 19:42 | 34.79536 | -9.72668 | 10001 ft | 240 kts | 308° |
| 2026-04-28 19:42 | 34.80239 | -9.73742 | 10001 ft | 240 kts | 308° |
| 2026-04-28 19:43 | 34.81620 | -9.75851 | 10001 ft | 240 kts | 308° |
| 2026-04-28 19:43 | 34.82656 | -9.77434 | 10001 ft | 240 kts | 308° |
| 2026-04-28 19:43 | 34.83704 | -9.79037 | 10001 ft | 240 kts | 308° |
| 2026-04-28 19:43 | 34.84740 | -9.80621 | 10001 ft | 240 kts | 308° |
| 2026-04-28 19:44 | 34.85770 | -9.82196 | 10001 ft | 240 kts | 308° |
| 2026-04-28 19:44 | 34.86811 | -9.83789 | 10001 ft | 240 kts | 308° |
| 2026-04-28 19:44 | 34.87860 | -9.85394 | 10001 ft | 240 kts | 308° |
| 2026-04-28 19:44 | 34.88888 | -9.86968 | 10001 ft | 240 kts | 308° |
| 2026-04-28 19:45 | 34.89931 | -9.88565 | 10001 ft | 240 kts | 308° |
| 2026-04-28 19:45 | 34.90975 | -9.90164 | 10001 ft | 240 kts | 308° |
| 2026-04-28 19:45 | 34.92004 | -9.91741 | 10001 ft | 240 kts | 308° |
| 2026-04-28 19:45 | 34.93045 | -9.93337 | 10001 ft | 240 kts | 308° |
| 2026-04-28 19:46 | 34.94085 | -9.94930 | 10001 ft | 240 kts | 308° |
| 2026-04-28 19:46 | 34.95124 | -9.96523 | 10001 ft | 240 kts | 308° |
| 2026-04-28 19:46 | 34.96163 | -9.98117 | 10001 ft | 240 kts | 308° |
| 2026-04-28 19:46 | 34.97201 | -9.99710 | 10001 ft | 240 kts | 308° |
| 2026-04-28 19:47 | 34.98239 | -10.01303 | 10001 ft | 240 kts | 308° |
| 2026-04-28 19:47 | 34.99280 | -10.02901 | 10001 ft | 240 kts | 308° |
| 2026-04-28 19:47 | 35.00308 | -10.04478 | 10001 ft | 240 kts | 308° |
| 2026-04-28 19:47 | 35.01347 | -10.06075 | 10001 ft | 240 kts | 308° |
| 2026-04-28 19:48 | 35.02391 | -10.07679 | 10001 ft | 240 kts | 308° |
| 2026-04-28 19:48 | 35.03421 | -10.09263 | 10001 ft | 240 kts | 308° |
| 2026-04-28 19:48 | 35.04454 | -10.10851 | 10001 ft | 240 kts | 308° |
| 2026-04-28 19:48 | 35.05492 | -10.12447 | 10001 ft | 240 kts | 308° |
| 2026-04-28 19:49 | 35.06531 | -10.14046 | 10001 ft | 240 kts | 308° |
| 2026-04-28 19:49 | 35.07572 | -10.15648 | 10001 ft | 240 kts | 308° |
| 2026-04-28 19:49 | 35.08612 | -10.17250 | 10001 ft | 240 kts | 308° |
| 2026-04-28 19:49 | 35.09639 | -10.18830 | 10001 ft | 240 kts | 308° |
| 2026-04-28 19:50 | 35.11716 | -10.22030 | 10001 ft | 240 kts | 308° |
| 2026-04-28 19:50 | 35.12757 | -10.23635 | 10001 ft | 240 kts | 308° |
| 2026-04-28 19:50 | 35.13784 | -10.25219 | 10001 ft | 240 kts | 308° |
| 2026-04-28 19:51 | 35.14819 | -10.26814 | 10001 ft | 240 kts | 308° |
| 2026-04-28 19:51 | 35.15864 | -10.28426 | 10001 ft | 240 kts | 308° |
| 2026-04-28 19:51 | 35.16902 | -10.30028 | 10001 ft | 240 kts | 308° |
| 2026-04-28 19:51 | 35.17929 | -10.31613 | 10001 ft | 240 kts | 308° |
| 2026-04-28 19:52 | 35.18974 | -10.33227 | 10001 ft | 240 kts | 308° |
| 2026-04-28 19:52 | 35.20006 | -10.34820 | 10001 ft | 240 kts | 308° |
| 2026-04-28 19:52 | 35.21038 | -10.36416 | 10001 ft | 240 kts | 308° |
| 2026-04-28 19:52 | 35.22082 | -10.38028 | 10001 ft | 240 kts | 308° |
| 2026-04-28 19:53 | 35.23118 | -10.39630 | 10001 ft | 240 kts | 308° |
| 2026-04-28 19:53 | 35.24148 | -10.41223 | 10001 ft | 240 kts | 308° |
| 2026-04-28 19:53 | 35.25180 | -10.42819 | 10001 ft | 240 kts | 308° |
| 2026-04-28 19:53 | 35.26218 | -10.44426 | 10001 ft | 240 kts | 308° |
| 2026-04-28 19:54 | 35.27256 | -10.46033 | 10001 ft | 240 kts | 308° |
| 2026-04-28 19:54 | 35.28291 | -10.47637 | 10001 ft | 240 kts | 308° |
| 2026-04-28 19:54 | 35.29314 | -10.49223 | 10001 ft | 240 kts | 308° |
| 2026-04-28 19:54 | 35.30351 | -10.50829 | 10001 ft | 240 kts | 308° |
| 2026-04-28 19:55 | 35.31392 | -10.52443 | 10001 ft | 240 kts | 308° |
| 2026-04-28 19:55 | 35.32415 | -10.54031 | 10001 ft | 240 kts | 308° |
| 2026-04-28 19:55 | 35.33450 | -10.55636 | 10001 ft | 240 kts | 308° |
| 2026-04-28 19:55 | 35.34485 | -10.57242 | 10001 ft | 240 kts | 308° |
| 2026-04-28 19:56 | 35.35525 | -10.58857 | 10001 ft | 240 kts | 308° |
| 2026-04-28 19:56 | 35.36552 | -10.60452 | 10001 ft | 240 kts | 308° |
| 2026-04-28 19:56 | 35.37588 | -10.62061 | 10001 ft | 240 kts | 308° |
| 2026-04-28 19:56 | 35.38615 | -10.63657 | 10001 ft | 240 kts | 308° |
| 2026-04-28 19:57 | 35.39645 | -10.65258 | 10001 ft | 240 kts | 308° |
| 2026-04-28 19:57 | 35.40684 | -10.66874 | 10001 ft | 240 kts | 308° |
| 2026-04-28 19:57 | 35.41713 | -10.68474 | 10001 ft | 240 kts | 308° |
| 2026-04-28 19:57 | 35.42743 | -10.70078 | 10001 ft | 240 kts | 308° |
| 2026-04-28 19:58 | 35.43782 | -10.71694 | 10001 ft | 240 kts | 308° |
| 2026-04-28 19:58 | 35.44813 | -10.73300 | 10001 ft | 240 kts | 308° |
| 2026-04-28 19:58 | 35.45840 | -10.74900 | 10001 ft | 240 kts | 308° |
| 2026-04-28 19:58 | 35.46880 | -10.76520 | 10001 ft | 240 kts | 308° |
| 2026-04-28 19:59 | 35.47907 | -10.78120 | 10001 ft | 240 kts | 308° |
| 2026-04-28 19:59 | 35.48940 | -10.79731 | 10001 ft | 240 kts | 308° |
| 2026-04-28 19:59 | 35.49972 | -10.81341 | 10001 ft | 240 kts | 308° |
| 2026-04-28 19:59 | 35.51005 | -10.82952 | 10001 ft | 240 kts | 308° |
| 2026-04-28 20:00 | 35.52029 | -10.84549 | 10001 ft | 240 kts | 308° |
| 2026-04-28 20:00 | 35.53061 | -10.86162 | 10001 ft | 240 kts | 308° |
| 2026-04-28 20:00 | 35.54094 | -10.87775 | 10001 ft | 240 kts | 308° |
| 2026-04-28 20:00 | 35.55132 | -10.89395 | 10001 ft | 240 kts | 308° |
| 2026-04-28 20:01 | 35.56164 | -10.91009 | 10001 ft | 240 kts | 308° |
| 2026-04-28 20:01 | 35.57187 | -10.92608 | 10001 ft | 240 kts | 308° |
| 2026-04-28 20:01 | 35.58217 | -10.94218 | 10001 ft | 240 kts | 308° |
| 2026-04-28 20:01 | 35.59246 | -10.95827 | 10001 ft | 240 kts | 308° |
| 2026-04-28 20:02 | 35.60277 | -10.97441 | 10001 ft | 240 kts | 308° |
| 2026-04-28 20:02 | 35.61312 | -10.99060 | 10001 ft | 240 kts | 308° |
| 2026-04-28 20:02 | 35.62337 | -11.00665 | 10001 ft | 240 kts | 308° |
| 2026-04-28 20:02 | 35.63370 | -11.02284 | 10001 ft | 240 kts | 308° |
| 2026-04-28 20:03 | 35.64407 | -11.03906 | 10001 ft | 240 kts | 308° |
| 2026-04-28 20:03 | 35.65425 | -11.05501 | 10001 ft | 240 kts | 308° |
| 2026-04-28 20:03 | 35.66455 | -11.07115 | 10001 ft | 240 kts | 308° |
| 2026-04-28 20:03 | 35.67489 | -11.08737 | 10001 ft | 240 kts | 308° |
| 2026-04-28 20:04 | 35.68522 | -11.10357 | 10001 ft | 240 kts | 308° |
| 2026-04-28 20:04 | 35.69553 | -11.11974 | 10001 ft | 240 kts | 308° |
| 2026-04-28 20:04 | 35.70575 | -11.13578 | 10001 ft | 240 kts | 308° |
| 2026-04-28 20:04 | 35.71608 | -11.15199 | 10001 ft | 240 kts | 308° |
| 2026-04-28 20:05 | 35.72642 | -11.16823 | 10001 ft | 240 kts | 308° |
| 2026-04-28 20:05 | 35.73661 | -11.18423 | 10001 ft | 240 kts | 308° |
| 2026-04-28 20:05 | 35.74697 | -11.20053 | 10001 ft | 240 kts | 308° |
| 2026-04-28 20:05 | 35.75721 | -11.21661 | 10001 ft | 240 kts | 308° |
| 2026-04-28 20:06 | 35.76751 | -11.23281 | 10001 ft | 240 kts | 308° |
| 2026-04-28 20:06 | 35.77782 | -11.24903 | 10001 ft | 240 kts | 308° |
| 2026-04-28 20:06 | 35.78813 | -11.26526 | 10001 ft | 240 kts | 308° |
| 2026-04-28 20:06 | 35.79839 | -11.28142 | 10001 ft | 240 kts | 308° |
| 2026-04-28 20:07 | 35.80870 | -11.29765 | 10001 ft | 240 kts | 308° |
| 2026-04-28 20:07 | 35.81549 | -11.30835 | 10001 ft | 240 kts | 308° |
| 2026-04-28 20:07 | 35.82917 | -11.32991 | 10001 ft | 240 kts | 308° |
| 2026-04-28 20:07 | 35.83950 | -11.34619 | 10001 ft | 240 kts | 308° |
| 2026-04-28 20:08 | 35.84969 | -11.36225 | 10001 ft | 240 kts | 308° |
| 2026-04-28 20:08 | 35.86001 | -11.37853 | 10001 ft | 240 kts | 308° |
| 2026-04-28 20:08 | 35.87021 | -11.39463 | 10001 ft | 240 kts | 308° |
| 2026-04-28 20:08 | 35.88058 | -11.41100 | 10001 ft | 240 kts | 308° |
| 2026-04-28 20:09 | 35.89022 | -11.42623 | 10001 ft | 240 kts | 308° |
| 2026-04-28 20:09 | 35.90050 | -11.44247 | 10001 ft | 240 kts | 308° |
| 2026-04-28 20:09 | 35.91081 | -11.45875 | 10001 ft | 240 kts | 308° |
| 2026-04-28 20:09 | 35.92101 | -11.47488 | 10001 ft | 240 kts | 308° |
| 2026-04-28 20:10 | 35.93122 | -11.49101 | 10001 ft | 240 kts | 308° |
| 2026-04-28 20:10 | 35.94158 | -11.50736 | 9998 ft | 240 kts | 310° |
| 2026-04-28 20:10 | 35.95467 | -11.51957 | 9996 ft | 240 kts | 341° |
| 2026-04-28 20:10 | 35.97127 | -11.52151 | 10043 ft | 242 kts | 13° |
| 2026-04-28 20:11 | 35.98616 | -11.51266 | 10014 ft | 241 kts | 44° |
| 2026-04-28 20:11 | 35.99504 | -11.49558 | 10037 ft | 241 kts | 76° |
| 2026-04-28 20:11 | 35.99570 | -11.47514 | 10035 ft | 241 kts | 99° |
| 2026-04-28 20:11 | 35.99274 | -11.45467 | 10011 ft | 241 kts | 101° |
| 2026-04-28 20:12 | 35.98968 | -11.43447 | 9995 ft | 239 kts | 101° |
| 2026-04-28 20:12 | 35.98663 | -11.41435 | 10010 ft | 240 kts | 101° |
| 2026-04-28 20:12 | 35.98354 | -11.39393 | 9996 ft | 240 kts | 101° |
| 2026-04-28 20:12 | 35.98150 | -11.38050 | 10000 ft | 240 kts | 101° |
| 2026-04-28 20:13 | 35.97742 | -11.35360 | 10003 ft | 240 kts | 101° |
| 2026-04-28 20:13 | 35.97437 | -11.33352 | 9997 ft | 240 kts | 101° |
| 2026-04-28 20:13 | 35.97127 | -11.31312 | 10005 ft | 240 kts | 101° |
| 2026-04-28 20:13 | 35.96821 | -11.29297 | 10002 ft | 240 kts | 101° |
| 2026-04-28 20:14 | 35.96515 | -11.27286 | 9998 ft | 240 kts | 101° |
| 2026-04-28 20:14 | 35.96204 | -11.25246 | 10005 ft | 240 kts | 101° |
| 2026-04-28 20:14 | 35.95898 | -11.23240 | 10001 ft | 240 kts | 101° |
| 2026-04-28 20:14 | 35.95588 | -11.21209 | 9998 ft | 240 kts | 101° |
| 2026-04-28 20:15 | 35.95281 | -11.19197 | 10005 ft | 240 kts | 101° |
| 2026-04-28 20:15 | 35.94970 | -11.17163 | 10001 ft | 240 kts | 101° |
| 2026-04-28 20:15 | 35.94664 | -11.15159 | 9998 ft | 240 kts | 101° |
| 2026-04-28 20:15 | 35.94353 | -11.13130 | 10005 ft | 240 kts | 101° |
| 2026-04-28 20:16 | 35.94042 | -11.11097 | 10001 ft | 240 kts | 101° |
| 2026-04-28 20:16 | 35.93735 | -11.09094 | 9998 ft | 240 kts | 101° |
| 2026-04-28 20:16 | 35.93424 | -11.07065 | 10005 ft | 240 kts | 101° |
| 2026-04-28 20:16 | 35.93115 | -11.05056 | 10002 ft | 240 kts | 101° |
| 2026-04-28 20:17 | 35.92804 | -11.03026 | 9998 ft | 240 kts | 101° |
| 2026-04-28 20:17 | 35.92495 | -11.01018 | 10004 ft | 240 kts | 101° |
| 2026-04-28 20:17 | 35.92183 | -10.98990 | 10002 ft | 240 kts | 101° |
| 2026-04-28 20:17 | 35.91875 | -10.96987 | 9998 ft | 240 kts | 101° |
| 2026-04-28 20:18 | 35.91561 | -10.94950 | 10003 ft | 240 kts | 101° |
| 2026-04-28 20:18 | 35.91355 | -10.93608 | 10005 ft | 240 kts | 101° |
| 2026-04-28 20:18 | 35.90941 | -10.90922 | 9998 ft | 240 kts | 101° |
| 2026-04-28 20:18 | 35.90626 | -10.88884 | 10002 ft | 240 kts | 101° |
| 2026-04-28 20:19 | 35.90317 | -10.86880 | 10004 ft | 240 kts | 101° |
| 2026-04-28 20:19 | 35.90007 | -10.84871 | 9999 ft | 240 kts | 101° |
| 2026-04-28 20:19 | 35.89693 | -10.82836 | 10001 ft | 240 kts | 101° |
| 2026-04-28 20:19 | 35.89383 | -10.80829 | 10005 ft | 240 kts | 101° |
| 2026-04-28 20:20 | 35.89047 | -10.78797 | 9988 ft | 240 kts | 108° |
| 2026-04-28 20:20 | 35.88224 | -10.77042 | 10030 ft | 239 kts | 129° |
| 2026-04-28 20:20 | 35.87159 | -10.75434 | 10010 ft | 242 kts | 129° |
| 2026-04-28 20:20 | 35.86073 | -10.73867 | 9992 ft | 239 kts | 131° |
| 2026-04-28 20:21 | 35.84977 | -10.72342 | 10011 ft | 240 kts | 131° |
| 2026-04-28 20:21 | 35.83855 | -10.70813 | 9993 ft | 240 kts | 132° |
| 2026-04-28 20:21 | 35.82726 | -10.69294 | 10007 ft | 240 kts | 132° |
| 2026-04-28 20:21 | 35.81592 | -10.67779 | 10000 ft | 240 kts | 132° |
| 2026-04-28 20:22 | 35.80470 | -10.66288 | 9998 ft | 240 kts | 132° |
| 2026-04-28 20:22 | 35.79336 | -10.64784 | 10006 ft | 240 kts | 133° |
| 2026-04-28 20:22 | 35.78196 | -10.63275 | 9999 ft | 240 kts | 133° |
| 2026-04-28 20:22 | 35.77050 | -10.61762 | 10000 ft | 240 kts | 133° |
| 2026-04-28 20:23 | 35.75919 | -10.60268 | 10005 ft | 240 kts | 133° |
| 2026-04-28 20:23 | 35.74773 | -10.58755 | 9999 ft | 240 kts | 133° |
| 2026-04-28 20:23 | 35.73645 | -10.57267 | 9999 ft | 240 kts | 133° |
| 2026-04-28 20:23 | 35.72507 | -10.55768 | 10005 ft | 240 kts | 133° |
| 2026-04-28 20:24 | 35.71365 | -10.54264 | 10000 ft | 240 kts | 133° |
| 2026-04-28 20:24 | 35.70227 | -10.52765 | 9999 ft | 240 kts | 133° |
| 2026-04-28 20:24 | 35.69085 | -10.51262 | 10005 ft | 240 kts | 133° |
| 2026-04-28 20:24 | 35.67941 | -10.49757 | 10001 ft | 240 kts | 133° |
| 2026-04-28 20:25 | 35.66815 | -10.48271 | 9996 ft | 240 kts | 130° |
| 2026-04-28 20:25 | 35.66016 | -10.46467 | 10015 ft | 239 kts | 109° |
| 2026-04-28 20:25 | 35.65438 | -10.44561 | 10020 ft | 242 kts | 110° |
| 2026-04-28 20:25 | 35.64816 | -10.42644 | 9965 ft | 240 kts | 124° |
| 2026-04-28 20:26 | 35.63696 | -10.41125 | 10062 ft | 240 kts | 134° |
| 2026-04-28 20:26 | 35.62540 | -10.39653 | 9983 ft | 241 kts | 133° |
| 2026-04-28 20:26 | 35.61393 | -10.38177 | 10009 ft | 239 kts | 133° |
| 2026-04-28 20:26 | 35.60234 | -10.36681 | 10001 ft | 240 kts | 133° |
| 2026-04-28 20:27 | 35.59093 | -10.35205 | 9998 ft | 239 kts | 133° |
| 2026-04-28 20:27 | 35.57936 | -10.33709 | 10007 ft | 240 kts | 134° |
| 2026-04-28 20:27 | 35.56791 | -10.32226 | 9996 ft | 240 kts | 133° |
| 2026-04-28 20:27 | 35.55650 | -10.30749 | 10003 ft | 240 kts | 133° |
| 2026-04-28 20:28 | 35.54491 | -10.29249 | 10003 ft | 240 kts | 133° |
| 2026-04-28 20:28 | 35.53344 | -10.27765 | 9839 ft | 243 kts | 133° |
| 2026-04-28 20:28 | 35.52169 | -10.26246 | 9575 ft | 244 kts | 133° |
| 2026-04-28 20:28 | 35.51011 | -10.24749 | 9328 ft | 243 kts | 133° |
| 2026-04-28 20:29 | 35.49842 | -10.23239 | 9080 ft | 242 kts | 133° |
| 2026-04-28 20:29 | 35.48689 | -10.21749 | 8831 ft | 241 kts | 133° |
| 2026-04-28 20:29 | 35.47528 | -10.20251 | 8580 ft | 240 kts | 133° |
| 2026-04-28 20:29 | 35.46379 | -10.18768 | 8331 ft | 240 kts | 133° |
| 2026-04-28 20:30 | 35.45238 | -10.17296 | 8083 ft | 239 kts | 133° |
| 2026-04-28 20:30 | 35.44097 | -10.15824 | 7834 ft | 239 kts | 133° |
| 2026-04-28 20:30 | 35.42943 | -10.14337 | 7582 ft | 239 kts | 133° |
| 2026-04-28 20:30 | 35.41810 | -10.12878 | 7334 ft | 238 kts | 133° |
| 2026-04-28 20:31 | 35.40662 | -10.11400 | 7084 ft | 238 kts | 133° |
| 2026-04-28 20:31 | 35.39515 | -10.09924 | 6835 ft | 238 kts | 133° |
| 2026-04-28 20:31 | 35.38385 | -10.08470 | 6590 ft | 238 kts | 133° |
| 2026-04-28 20:31 | 35.37239 | -10.06996 | 6341 ft | 238 kts | 133° |
| 2026-04-28 20:32 | 35.36107 | -10.05541 | 6095 ft | 238 kts | 133° |
| 2026-04-28 20:32 | 35.34965 | -10.04073 | 5847 ft | 238 kts | 133° |
| 2026-04-28 20:32 | 35.33821 | -10.02606 | 5599 ft | 237 kts | 133° |
| 2026-04-28 20:32 | 35.32676 | -10.01135 | 5350 ft | 237 kts | 133° |
| 2026-04-28 20:33 | 35.31545 | -9.99684 | 5105 ft | 237 kts | 133° |
| 2026-04-28 20:33 | 35.30397 | -9.98212 | 4856 ft | 237 kts | 133° |
| 2026-04-28 20:33 | 35.29255 | -9.96747 | 4608 ft | 237 kts | 133° |
| 2026-04-28 20:33 | 35.28125 | -9.95299 | 4363 ft | 238 kts | 133° |
| 2026-04-28 20:34 | 35.26984 | -9.93838 | 4116 ft | 238 kts | 133° |
| 2026-04-28 20:34 | 35.25845 | -9.92379 | 3982 ft | 232 kts | 133° |
| 2026-04-28 20:34 | 35.24759 | -9.90990 | 3997 ft | 220 kts | 133° |
| 2026-04-28 20:34 | 35.23724 | -9.89665 | 3968 ft | 212 kts | 133° |
| 2026-04-28 20:35 | 35.22709 | -9.88367 | 4005 ft | 210 kts | 133° |
| 2026-04-28 20:35 | 35.21709 | -9.87089 | 3999 ft | 210 kts | 133° |
| 2026-04-28 20:35 | 35.20695 | -9.85793 | 4000 ft | 210 kts | 133° |
| 2026-04-28 20:35 | 35.19682 | -9.84500 | 4005 ft | 210 kts | 133° |
| 2026-04-28 20:36 | 35.18668 | -9.83205 | 3997 ft | 210 kts | 133° |
| 2026-04-28 20:36 | 35.17656 | -9.81914 | 4004 ft | 210 kts | 133° |
| 2026-04-28 20:36 | 35.16645 | -9.80623 | 4001 ft | 210 kts | 133° |
| 2026-04-28 20:36 | 35.15638 | -9.79340 | 3999 ft | 210 kts | 133° |
| 2026-04-28 20:37 | 35.14625 | -9.78048 | 4004 ft | 210 kts | 133° |
| 2026-04-28 20:37 | 35.11462 | -9.74019 | 3992 ft | 210 kts | 133° |
| 2026-04-28 20:37 | 35.03314 | -9.63662 | 4009 ft | 210 kts | 133° |
| 2026-04-28 20:37 | 34.95272 | -9.53470 | 4005 ft | 210 kts | 133° |
| 2026-04-28 20:38 | 34.87135 | -9.43190 | 4003 ft | 210 kts | 133° |
| 2026-04-28 20:38 | 34.79044 | -9.33000 | 4004 ft | 210 kts | 134° |
| 2026-04-28 20:38 | 34.70887 | -9.22756 | 4004 ft | 210 kts | 134° |
| 2026-04-28 20:38 | 34.62666 | -9.12464 | 4001 ft | 209 kts | 134° |
| 2026-04-28 20:39 | 34.51179 | -8.98134 | 4012 ft | 209 kts | 134° |
| 2026-04-28 20:39 | 34.34755 | -8.77751 | 4035 ft | 210 kts | 134° |
| 2026-04-28 20:39 | 34.19450 | -8.58866 | 4013 ft | 210 kts | 134° |
| 2026-04-28 20:39 | 34.18418 | -8.57596 | 3998 ft | 210 kts | 134° |
| 2026-04-28 20:40 | 34.17393 | -8.56335 | 3833 ft | 212 kts | 134° |
| 2026-04-28 20:40 | 34.16371 | -8.55078 | 3553 ft | 210 kts | 134° |
| 2026-04-28 20:40 | 34.15348 | -8.53822 | 3298 ft | 206 kts | 134° |
| 2026-04-28 20:40 | 34.14376 | -8.52628 | 3138 ft | 193 kts | 134° |
| 2026-04-28 20:41 | 34.13441 | -8.51479 | 2951 ft | 190 kts | 134° |
| 2026-04-28 20:41 | 34.12519 | -8.50347 | 2672 ft | 187 kts | 134° |
| 2026-04-28 20:41 | 34.11613 | -8.49235 | 2423 ft | 186 kts | 134° |
| 2026-04-28 20:41 | 34.10709 | -8.48126 | 2175 ft | 186 kts | 134° |
| 2026-04-28 20:42 | 34.09807 | -8.47020 | 1987 ft | 183 kts | 134° |
| 2026-04-28 20:42 | 34.08905 | -8.45914 | 2017 ft | 184 kts | 134° |
| 2026-04-28 20:42 | 34.08007 | -8.44813 | 2002 ft | 185 kts | 134° |
| 2026-04-28 20:42 | 34.07109 | -8.43713 | 2000 ft | 185 kts | 134° |
| 2026-04-28 20:43 | 34.06202 | -8.42601 | 2005 ft | 185 kts | 134° |
| 2026-04-28 20:43 | 34.05293 | -8.41488 | 1997 ft | 185 kts | 134° |
| 2026-04-28 20:43 | 34.04395 | -8.40389 | 2004 ft | 185 kts | 134° |
| 2026-04-28 20:43 | 34.03480 | -8.39270 | 2000 ft | 185 kts | 134° |
| 2026-04-28 20:44 | 34.02580 | -8.38168 | 1999 ft | 185 kts | 134° |
| 2026-04-28 20:44 | 34.01666 | -8.37051 | 2004 ft | 185 kts | 134° |
| 2026-04-28 20:44 | 34.00768 | -8.35952 | 2000 ft | 185 kts | 134° |
| 2026-04-28 20:44 | 33.99927 | -8.34758 | 1996 ft | 185 kts | 126° |
| 2026-04-28 20:45 | 33.99159 | -8.33519 | 2006 ft | 185 kts | 127° |
| 2026-04-28 20:45 | 33.98390 | -8.32276 | 1997 ft | 185 kts | 127° |
| 2026-04-28 20:45 | 33.97620 | -8.31024 | 2002 ft | 185 kts | 127° |
| 2026-04-28 20:45 | 33.96856 | -8.29778 | 2062 ft | 184 kts | 126° |
| 2026-04-28 20:46 | 33.96102 | -8.28547 | 1976 ft | 183 kts | 126° |
| 2026-04-28 20:46 | 33.95343 | -8.27305 | 2017 ft | 184 kts | 126° |
| 2026-04-28 20:46 | 33.94587 | -8.26067 | 1998 ft | 185 kts | 126° |
| 2026-04-28 20:46 | 33.93822 | -8.24814 | 2002 ft | 185 kts | 126° |
| 2026-04-28 20:47 | 33.93065 | -8.23574 | 2004 ft | 185 kts | 126° |
| 2026-04-28 20:47 | 33.90577 | -8.19500 | 1998 ft | 185 kts | 126° |
| 2026-04-28 20:47 | 33.83464 | -8.07876 | 2028 ft | 185 kts | 126° |
| 2026-04-28 20:47 | 33.71210 | -7.87934 | 2014 ft | 185 kts | 126° |
| 2026-04-28 20:48 | 33.65928 | -7.79374 | 2006 ft | 185 kts | 126° |
| 2026-04-28 20:48 | 33.65162 | -7.78134 | 1997 ft | 185 kts | 126° |
| 2026-04-28 20:48 | 33.64677 | -7.77348 | 2003 ft | 185 kts | 126° |
| 2026-04-28 20:48 | 33.64098 | -7.76412 | 1962 ft | 185 kts | 126° |
| 2026-04-28 20:49 | 33.63338 | -7.75183 | 2013 ft | 184 kts | 126° |
| 2026-04-28 20:49 | 33.62572 | -7.73945 | 1998 ft | 185 kts | 126° |
| 2026-04-28 20:49 | 33.61809 | -7.72711 | 1980 ft | 179 kts | 126° |
| 2026-04-28 20:49 | 33.61076 | -7.71527 | 1992 ft | 175 kts | 126° |
| 2026-04-28 20:50 | 33.60352 | -7.70357 | 2002 ft | 175 kts | 126° |
| 2026-04-28 20:50 | 33.59615 | -7.69188 | 1990 ft | 175 kts | 129° |
| 2026-04-28 20:50 | 33.58590 | -7.68443 | 2001 ft | 174 kts | 161° |
| 2026-04-28 20:50 | 33.57435 | -7.67927 | 2024 ft | 176 kts | 158° |
| 2026-04-28 20:51 | 33.56296 | -7.67399 | 1986 ft | 175 kts | 159° |
| 2026-04-28 20:51 | 33.55156 | -7.66871 | 2012 ft | 175 kts | 159° |
| 2026-04-28 20:51 | 33.54010 | -7.66339 | 1994 ft | 175 kts | 158° |
| 2026-04-28 20:51 | 33.52879 | -7.65813 | 2005 ft | 175 kts | 158° |
| 2026-04-28 20:52 | 33.51742 | -7.65285 | 1986 ft | 169 kts | 158° |
| 2026-04-28 20:52 | 33.50690 | -7.64797 | 1974 ft | 157 kts | 158° |
| 2026-04-28 20:52 | 33.49701 | -7.64243 | 1963 ft | 157 kts | 142° |
| 2026-04-28 20:52 | 33.49014 | -7.63730 | 2005 ft | 155 kts | 152° |
| 2026-04-28 20:53 | 33.47098 | -7.62801 | 1991 ft | 156 kts | 161° |
| 2026-04-28 20:53 | 33.46055 | -7.62404 | 2011 ft | 156 kts | 162° |
| 2026-04-28 20:53 | 33.45015 | -7.62033 | 1996 ft | 156 kts | 163° |
| 2026-04-28 20:54 | 33.43964 | -7.61669 | 1800 ft | 157 kts | 163° |
| 2026-04-28 20:54 | 33.42919 | -7.61311 | 1591 ft | 152 kts | 163° |
| 2026-04-28 20:54 | 33.41912 | -7.60966 | 1399 ft | 150 kts | 163° |
| 2026-04-28 20:54 | 33.40909 | -7.60624 | 1206 ft | 150 kts | 163° |
| 2026-04-28 20:55 | 33.39900 | -7.60280 | 1008 ft | 149 kts | 163° |
| 2026-04-28 20:55 | 33.38908 | -7.59942 | 813 ft | 149 kts | 163° |
| 2026-04-28 20:55 | 33.38519 | -7.59810 | 736 ft | 149 kts | 163° |
| 2026-04-28 20:55 | 33.37703 | -7.59514 | 653 ft | 101 kts | 166° |
| 2026-04-28 20:56 | 33.37474 | -7.59467 | 653 ft | 0 kts | 166° |
| 2026-04-28 20:56 | 33.37459 | -7.59463 | 653 ft | 12 kts | 167° |
| 2026-04-28 20:56 | 33.37246 | -7.59389 | 653 ft | 29 kts | 163° |
| 2026-04-28 20:56 | 33.37224 | -7.59381 | 653 ft | 0 kts | 163° |